<?xml version="1.0" encoding="UTF-8" standalone="no" ?>
<gpx xmlns="http://www.topografix.com/GPX/1/1" xmlns:xsi="http://www.w3.org/2001/XMLSchema-instance" xsi:schemaLocation="http://www.topografix.com/GPX/1/1 http://www.topografix.com/GPX/1/1/gpx.xsd" version="1.1" creator="VisuGPX - https://www.visugpx.com">
  <metadata>
    <name>ST_RAD_15.5km </name>
    <desc><![CDATA[15km route et chemin]]></desc>
  </metadata>
  <trk>
    <name><![CDATA[st RA 15km +]]></name>
    <trkseg>
      <trkpt lat="44.3357" lon="2.62924">
        <ele>645.6625977</ele>
        <time>2014-07-12T06:56:08Z</time>
      </trkpt>
      <trkpt lat="44.33566" lon="2.62931">
        <ele>644.7011719</ele>
        <time>2014-07-12T06:56:14Z</time>
      </trkpt>
      <trkpt lat="44.33566" lon="2.62952">
        <ele>644.7011719</ele>
        <time>2014-07-12T06:56:20Z</time>
      </trkpt>
      <trkpt lat="44.33568" lon="2.62964">
        <ele>644.7011719</ele>
        <time>2014-07-12T06:56:23Z</time>
      </trkpt>
      <trkpt lat="44.33571" lon="2.62981">
        <ele>644.2207031</ele>
        <time>2014-07-12T06:56:28Z</time>
      </trkpt>
      <trkpt lat="44.33572" lon="2.63002">
        <ele>644.2207031</ele>
        <time>2014-07-12T06:56:34Z</time>
      </trkpt>
      <trkpt lat="44.33571" lon="2.63016">
        <ele>643.7399902</ele>
        <time>2014-07-12T06:56:38Z</time>
      </trkpt>
      <trkpt lat="44.33572" lon="2.63019">
        <ele>644.2207031</ele>
        <time>2014-07-12T06:56:39Z</time>
      </trkpt>
      <trkpt lat="44.33574" lon="2.63027">
        <ele>644.7011719</ele>
        <time>2014-07-12T06:56:42Z</time>
      </trkpt>
      <trkpt lat="44.33568" lon="2.63038">
        <ele>643.7399902</ele>
        <time>2014-07-12T06:56:47Z</time>
      </trkpt>
      <trkpt lat="44.33564" lon="2.63049">
        <ele>642.7788086</ele>
        <time>2014-07-12T06:56:51Z</time>
      </trkpt>
      <trkpt lat="44.33563" lon="2.63055">
        <ele>642.2980957</ele>
        <time>2014-07-12T06:56:53Z</time>
      </trkpt>
      <trkpt lat="44.33561" lon="2.63077">
        <ele>641.8173828</ele>
        <time>2014-07-12T06:56:59Z</time>
      </trkpt>
      <trkpt lat="44.33559" lon="2.63095">
        <ele>641.8173828</ele>
        <time>2014-07-12T06:57:04Z</time>
      </trkpt>
      <trkpt lat="44.33554" lon="2.63117">
        <ele>640.3754883</ele>
        <time>2014-07-12T06:57:10Z</time>
      </trkpt>
      <trkpt lat="44.33547" lon="2.63132">
        <ele>637.0107422</ele>
        <time>2014-07-12T06:57:15Z</time>
      </trkpt>
      <trkpt lat="44.3354" lon="2.63148">
        <ele>635.5686035</ele>
        <time>2014-07-12T06:57:20Z</time>
      </trkpt>
      <trkpt lat="44.33534" lon="2.63164">
        <ele>636.0495605</ele>
        <time>2014-07-12T06:57:25Z</time>
      </trkpt>
      <trkpt lat="44.33529" lon="2.63181">
        <ele>635.0881348</ele>
        <time>2014-07-12T06:57:30Z</time>
      </trkpt>
      <trkpt lat="44.33524" lon="2.63203">
        <ele>635.5686035</ele>
        <time>2014-07-12T06:57:36Z</time>
      </trkpt>
      <trkpt lat="44.33521" lon="2.63218">
        <ele>635.5686035</ele>
        <time>2014-07-12T06:57:40Z</time>
      </trkpt>
      <trkpt lat="44.33518" lon="2.63233">
        <ele>635.5686035</ele>
        <time>2014-07-12T06:57:44Z</time>
      </trkpt>
      <trkpt lat="44.33513" lon="2.6325">
        <ele>635.0881348</ele>
        <time>2014-07-12T06:57:49Z</time>
      </trkpt>
      <trkpt lat="44.33505" lon="2.63273">
        <ele>632.6848145</ele>
        <time>2014-07-12T06:57:56Z</time>
      </trkpt>
      <trkpt lat="44.33501" lon="2.6329">
        <ele>631.2429199</ele>
        <time>2014-07-12T06:58:01Z</time>
      </trkpt>
      <trkpt lat="44.33496" lon="2.63309">
        <ele>630.762207</ele>
        <time>2014-07-12T06:58:06Z</time>
      </trkpt>
      <trkpt lat="44.33492" lon="2.63328">
        <ele>630.2814941</ele>
        <time>2014-07-12T06:58:11Z</time>
      </trkpt>
      <trkpt lat="44.33488" lon="2.63348">
        <ele>629.8007813</ele>
        <time>2014-07-12T06:58:16Z</time>
      </trkpt>
      <trkpt lat="44.33485" lon="2.63361">
        <ele>629.8007813</ele>
        <time>2014-07-12T06:58:20Z</time>
      </trkpt>
      <trkpt lat="44.33484" lon="2.6338">
        <ele>629.8007813</ele>
        <time>2014-07-12T06:58:25Z</time>
      </trkpt>
      <trkpt lat="44.33482" lon="2.63396">
        <ele>630.2814941</ele>
        <time>2014-07-12T06:58:29Z</time>
      </trkpt>
      <trkpt lat="44.33481" lon="2.63408">
        <ele>630.2814941</ele>
        <time>2014-07-12T06:58:32Z</time>
      </trkpt>
      <trkpt lat="44.33477" lon="2.6343">
        <ele>631.7233887</ele>
        <time>2014-07-12T06:58:39Z</time>
      </trkpt>
      <trkpt lat="44.33473" lon="2.63451">
        <ele>630.2814941</ele>
        <time>2014-07-12T06:58:45Z</time>
      </trkpt>
      <trkpt lat="44.3347" lon="2.63466">
        <ele>629.8007813</ele>
        <time>2014-07-12T06:58:49Z</time>
      </trkpt>
      <trkpt lat="44.33466" lon="2.6348">
        <ele>628.3588867</ele>
        <time>2014-07-12T06:58:53Z</time>
      </trkpt>
      <trkpt lat="44.33459" lon="2.63501">
        <ele>628.3588867</ele>
        <time>2014-07-12T06:58:59Z</time>
      </trkpt>
      <trkpt lat="44.33455" lon="2.63517">
        <ele>626.4362793</ele>
        <time>2014-07-12T06:59:04Z</time>
      </trkpt>
      <trkpt lat="44.33452" lon="2.63537">
        <ele>625.9555664</ele>
        <time>2014-07-12T06:59:09Z</time>
      </trkpt>
      <trkpt lat="44.33449" lon="2.63565">
        <ele>625.4748535</ele>
        <time>2014-07-12T06:59:16Z</time>
      </trkpt>
      <trkpt lat="44.33448" lon="2.63568">
        <ele>624.9943848</ele>
        <time>2014-07-12T06:59:17Z</time>
      </trkpt>
      <trkpt lat="44.3344" lon="2.63582">
        <ele>625.4748535</ele>
        <time>2014-07-12T06:59:22Z</time>
      </trkpt>
      <trkpt lat="44.3343" lon="2.63592">
        <ele>626.4362793</ele>
        <time>2014-07-12T06:59:27Z</time>
      </trkpt>
      <trkpt lat="44.33422" lon="2.63603">
        <ele>627.3977051</ele>
        <time>2014-07-12T06:59:32Z</time>
      </trkpt>
      <trkpt lat="44.33413" lon="2.63614">
        <ele>628.8395996</ele>
        <time>2014-07-12T06:59:38Z</time>
      </trkpt>
      <trkpt lat="44.33406" lon="2.63622">
        <ele>630.2814941</ele>
        <time>2014-07-12T06:59:43Z</time>
      </trkpt>
      <trkpt lat="44.33398" lon="2.63632">
        <ele>631.7233887</ele>
        <time>2014-07-12T06:59:49Z</time>
      </trkpt>
      <trkpt lat="44.3339" lon="2.63646">
        <ele>633.6459961</ele>
        <time>2014-07-12T06:59:56Z</time>
      </trkpt>
      <trkpt lat="44.33381" lon="2.63662">
        <ele>636.0495605</ele>
        <time>2014-07-12T07:00:03Z</time>
      </trkpt>
      <trkpt lat="44.33373" lon="2.63675">
        <ele>637.0107422</ele>
        <time>2014-07-12T07:00:09Z</time>
      </trkpt>
      <trkpt lat="44.33365" lon="2.63691">
        <ele>638.4528809</ele>
        <time>2014-07-12T07:00:16Z</time>
      </trkpt>
      <trkpt lat="44.33359" lon="2.6371">
        <ele>640.855957</ele>
        <time>2014-07-12T07:00:23Z</time>
      </trkpt>
      <trkpt lat="44.33357" lon="2.63718">
        <ele>642.2980957</ele>
        <time>2014-07-12T07:00:26Z</time>
      </trkpt>
      <trkpt lat="44.33354" lon="2.6373">
        <ele>644.2207031</ele>
        <time>2014-07-12T07:00:30Z</time>
      </trkpt>
      <trkpt lat="44.33352" lon="2.63741">
        <ele>646.1433105</ele>
        <time>2014-07-12T07:00:34Z</time>
      </trkpt>
      <trkpt lat="44.33346" lon="2.6376">
        <ele>649.0270996</ele>
        <time>2014-07-12T07:00:40Z</time>
      </trkpt>
      <trkpt lat="44.33341" lon="2.63778">
        <ele>650.4692383</ele>
        <time>2014-07-12T07:00:46Z</time>
      </trkpt>
      <trkpt lat="44.33337" lon="2.63791">
        <ele>652.3918457</ele>
        <time>2014-07-12T07:00:51Z</time>
      </trkpt>
      <trkpt lat="44.33332" lon="2.63808">
        <ele>653.3532715</ele>
        <time>2014-07-12T07:00:57Z</time>
      </trkpt>
      <trkpt lat="44.33329" lon="2.63822">
        <ele>654.3146973</ele>
        <time>2014-07-12T07:01:02Z</time>
      </trkpt>
      <trkpt lat="44.33326" lon="2.63831">
        <ele>654.3146973</ele>
        <time>2014-07-12T07:01:05Z</time>
      </trkpt>
      <trkpt lat="44.3332" lon="2.63855">
        <ele>654.795166</ele>
        <time>2014-07-12T07:01:14Z</time>
      </trkpt>
      <trkpt lat="44.33317" lon="2.63869">
        <ele>655.2758789</ele>
        <time>2014-07-12T07:01:19Z</time>
      </trkpt>
      <trkpt lat="44.33313" lon="2.63884">
        <ele>656.2370605</ele>
        <time>2014-07-12T07:01:24Z</time>
      </trkpt>
      <trkpt lat="44.33307" lon="2.63903">
        <ele>658.1599121</ele>
        <time>2014-07-12T07:01:31Z</time>
      </trkpt>
      <trkpt lat="44.33303" lon="2.63921">
        <ele>658.6403809</ele>
        <time>2014-07-12T07:01:37Z</time>
      </trkpt>
      <trkpt lat="44.333" lon="2.63936">
        <ele>659.1210938</ele>
        <time>2014-07-12T07:01:42Z</time>
      </trkpt>
      <trkpt lat="44.33298" lon="2.63953">
        <ele>660.5629883</ele>
        <time>2014-07-12T07:01:47Z</time>
      </trkpt>
      <trkpt lat="44.33296" lon="2.63973">
        <ele>661.5244141</ele>
        <time>2014-07-12T07:01:53Z</time>
      </trkpt>
      <trkpt lat="44.33295" lon="2.63986">
        <ele>662.005127</ele>
        <time>2014-07-12T07:01:57Z</time>
      </trkpt>
      <trkpt lat="44.33292" lon="2.63999">
        <ele>662.4855957</ele>
        <time>2014-07-12T07:02:01Z</time>
      </trkpt>
      <trkpt lat="44.33286" lon="2.64017">
        <ele>662.4855957</ele>
        <time>2014-07-12T07:02:07Z</time>
      </trkpt>
      <trkpt lat="44.33281" lon="2.64036">
        <ele>662.9663086</ele>
        <time>2014-07-12T07:02:13Z</time>
      </trkpt>
      <trkpt lat="44.3328" lon="2.64053">
        <ele>662.9663086</ele>
        <time>2014-07-12T07:02:18Z</time>
      </trkpt>
      <trkpt lat="44.33279" lon="2.64072">
        <ele>664.888916</ele>
        <time>2014-07-12T07:02:23Z</time>
      </trkpt>
      <trkpt lat="44.33277" lon="2.6409">
        <ele>664.888916</ele>
        <time>2014-07-12T07:02:28Z</time>
      </trkpt>
      <trkpt lat="44.33275" lon="2.64103">
        <ele>664.888916</ele>
        <time>2014-07-12T07:02:32Z</time>
      </trkpt>
      <trkpt lat="44.33272" lon="2.64117">
        <ele>665.3696289</ele>
        <time>2014-07-12T07:02:36Z</time>
      </trkpt>
      <trkpt lat="44.33272" lon="2.6412">
        <ele>665.3696289</ele>
        <time>2014-07-12T07:02:37Z</time>
      </trkpt>
      <trkpt lat="44.33269" lon="2.64135">
        <ele>665.3696289</ele>
        <time>2014-07-12T07:02:42Z</time>
      </trkpt>
      <trkpt lat="44.33268" lon="2.64139">
        <ele>665.8503418</ele>
        <time>2014-07-12T07:02:43Z</time>
      </trkpt>
      <trkpt lat="44.33264" lon="2.6416">
        <ele>666.3308105</ele>
        <time>2014-07-12T07:02:50Z</time>
      </trkpt>
      <trkpt lat="44.33259" lon="2.64179">
        <ele>666.8115234</ele>
        <time>2014-07-12T07:02:56Z</time>
      </trkpt>
      <trkpt lat="44.33254" lon="2.64199">
        <ele>667.7727051</ele>
        <time>2014-07-12T07:03:02Z</time>
      </trkpt>
      <trkpt lat="44.33248" lon="2.64219">
        <ele>669.6958008</ele>
        <time>2014-07-12T07:03:08Z</time>
      </trkpt>
      <trkpt lat="44.33242" lon="2.64235">
        <ele>670.6569824</ele>
        <time>2014-07-12T07:03:13Z</time>
      </trkpt>
      <trkpt lat="44.33235" lon="2.64254">
        <ele>671.6181641</ele>
        <time>2014-07-12T07:03:19Z</time>
      </trkpt>
      <trkpt lat="44.3323" lon="2.6427">
        <ele>671.6181641</ele>
        <time>2014-07-12T07:03:24Z</time>
      </trkpt>
      <trkpt lat="44.33223" lon="2.64284">
        <ele>671.6181641</ele>
        <time>2014-07-12T07:03:29Z</time>
      </trkpt>
      <trkpt lat="44.33215" lon="2.64305">
        <ele>673.0603027</ele>
        <time>2014-07-12T07:03:36Z</time>
      </trkpt>
      <trkpt lat="44.33207" lon="2.64323">
        <ele>674.0214844</ele>
        <time>2014-07-12T07:03:42Z</time>
      </trkpt>
      <trkpt lat="44.33201" lon="2.64339">
        <ele>674.9829102</ele>
        <time>2014-07-12T07:03:47Z</time>
      </trkpt>
      <trkpt lat="44.33195" lon="2.64354">
        <ele>676.9055176</ele>
        <time>2014-07-12T07:03:52Z</time>
      </trkpt>
      <trkpt lat="44.33188" lon="2.64373">
        <ele>677.8666992</ele>
        <time>2014-07-12T07:03:58Z</time>
      </trkpt>
      <trkpt lat="44.33184" lon="2.64385">
        <ele>677.3862305</ele>
        <time>2014-07-12T07:04:02Z</time>
      </trkpt>
      <trkpt lat="44.3318" lon="2.64398">
        <ele>677.3862305</ele>
        <time>2014-07-12T07:04:06Z</time>
      </trkpt>
      <trkpt lat="44.33176" lon="2.6441">
        <ele>677.8666992</ele>
        <time>2014-07-12T07:04:10Z</time>
      </trkpt>
      <trkpt lat="44.33171" lon="2.64426">
        <ele>677.8666992</ele>
        <time>2014-07-12T07:04:15Z</time>
      </trkpt>
      <trkpt lat="44.33168" lon="2.6444">
        <ele>678.3474121</ele>
        <time>2014-07-12T07:04:19Z</time>
      </trkpt>
      <trkpt lat="44.33165" lon="2.64457">
        <ele>678.828125</ele>
        <time>2014-07-12T07:04:24Z</time>
      </trkpt>
      <trkpt lat="44.33164" lon="2.64464">
        <ele>678.3474121</ele>
        <time>2014-07-12T07:04:26Z</time>
      </trkpt>
      <trkpt lat="44.33155" lon="2.64485">
        <ele>678.3474121</ele>
        <time>2014-07-12T07:04:33Z</time>
      </trkpt>
      <trkpt lat="44.3315" lon="2.64498">
        <ele>677.8666992</ele>
        <time>2014-07-12T07:04:39Z</time>
      </trkpt>
      <trkpt lat="44.33147" lon="2.64503">
        <ele>677.3862305</ele>
        <time>2014-07-12T07:04:49Z</time>
      </trkpt>
      <trkpt lat="44.3314" lon="2.64521">
        <ele>677.3862305</ele>
        <time>2014-07-12T07:04:55Z</time>
      </trkpt>
      <trkpt lat="44.33134" lon="2.64533">
        <ele>677.3862305</ele>
        <time>2014-07-12T07:04:59Z</time>
      </trkpt>
      <trkpt lat="44.33129" lon="2.6455">
        <ele>677.8666992</ele>
        <time>2014-07-12T07:05:04Z</time>
      </trkpt>
      <trkpt lat="44.33123" lon="2.64565">
        <ele>677.8666992</ele>
        <time>2014-07-12T07:05:09Z</time>
      </trkpt>
      <trkpt lat="44.33115" lon="2.64578">
        <ele>678.3474121</ele>
        <time>2014-07-12T07:05:14Z</time>
      </trkpt>
      <trkpt lat="44.33109" lon="2.64599">
        <ele>678.3474121</ele>
        <time>2014-07-12T07:05:20Z</time>
      </trkpt>
      <trkpt lat="44.33107" lon="2.64621">
        <ele>678.3474121</ele>
        <time>2014-07-12T07:05:26Z</time>
      </trkpt>
      <trkpt lat="44.33104" lon="2.64639">
        <ele>677.8666992</ele>
        <time>2014-07-12T07:05:31Z</time>
      </trkpt>
      <trkpt lat="44.33102" lon="2.64656">
        <ele>677.8666992</ele>
        <time>2014-07-12T07:05:36Z</time>
      </trkpt>
      <trkpt lat="44.33099" lon="2.64674">
        <ele>677.3862305</ele>
        <time>2014-07-12T07:05:41Z</time>
      </trkpt>
      <trkpt lat="44.33095" lon="2.64699">
        <ele>676.9055176</ele>
        <time>2014-07-12T07:05:48Z</time>
      </trkpt>
      <trkpt lat="44.3309" lon="2.64716">
        <ele>676.4248047</ele>
        <time>2014-07-12T07:05:53Z</time>
      </trkpt>
      <trkpt lat="44.33084" lon="2.64737">
        <ele>674.9829102</ele>
        <time>2014-07-12T07:05:59Z</time>
      </trkpt>
      <trkpt lat="44.33081" lon="2.64752">
        <ele>673.5410156</ele>
        <time>2014-07-12T07:06:03Z</time>
      </trkpt>
      <trkpt lat="44.3308" lon="2.64766">
        <ele>672.098877</ele>
        <time>2014-07-12T07:06:07Z</time>
      </trkpt>
      <trkpt lat="44.33077" lon="2.6479">
        <ele>670.6569824</ele>
        <time>2014-07-12T07:06:13Z</time>
      </trkpt>
      <trkpt lat="44.33074" lon="2.64814">
        <ele>669.2150879</ele>
        <time>2014-07-12T07:06:19Z</time>
      </trkpt>
      <trkpt lat="44.33072" lon="2.64818">
        <ele>668.734375</ele>
        <time>2014-07-12T07:06:20Z</time>
      </trkpt>
      <trkpt lat="44.33068" lon="2.64842">
        <ele>665.3696289</ele>
        <time>2014-07-12T07:06:27Z</time>
      </trkpt>
      <trkpt lat="44.33064" lon="2.64849">
        <ele>663.9274902</ele>
        <time>2014-07-12T07:06:31Z</time>
      </trkpt>
      <trkpt lat="44.33063" lon="2.64849">
        <ele>663.9274902</ele>
        <time>2014-07-12T07:06:36Z</time>
      </trkpt>
      <trkpt lat="44.33051" lon="2.6485">
        <ele>662.4855957</ele>
        <time>2014-07-12T07:06:42Z</time>
      </trkpt>
      <trkpt lat="44.3304" lon="2.64849">
        <ele>660.5629883</ele>
        <time>2014-07-12T07:06:47Z</time>
      </trkpt>
      <trkpt lat="44.33042" lon="2.64849">
        <ele>660.5629883</ele>
        <time>2014-07-12T07:06:53Z</time>
      </trkpt>
      <trkpt lat="44.33037" lon="2.64847">
        <ele>659.1210938</ele>
        <time>2014-07-12T07:06:57Z</time>
      </trkpt>
      <trkpt lat="44.3302" lon="2.64845">
        <ele>658.6403809</ele>
        <time>2014-07-12T07:07:03Z</time>
      </trkpt>
      <trkpt lat="44.33006" lon="2.64841">
        <ele>658.6403809</ele>
        <time>2014-07-12T07:07:08Z</time>
      </trkpt>
      <trkpt lat="44.32992" lon="2.64837">
        <ele>658.6403809</ele>
        <time>2014-07-12T07:07:14Z</time>
      </trkpt>
      <trkpt lat="44.32978" lon="2.64834">
        <ele>658.6403809</ele>
        <time>2014-07-12T07:07:20Z</time>
      </trkpt>
      <trkpt lat="44.32968" lon="2.64831">
        <ele>659.1210938</ele>
        <time>2014-07-12T07:07:24Z</time>
      </trkpt>
      <trkpt lat="44.32957" lon="2.64827">
        <ele>659.6018066</ele>
        <time>2014-07-12T07:07:28Z</time>
      </trkpt>
      <trkpt lat="44.32941" lon="2.64826">
        <ele>660.0822754</ele>
        <time>2014-07-12T07:07:34Z</time>
      </trkpt>
      <trkpt lat="44.32927" lon="2.64823">
        <ele>658.6403809</ele>
        <time>2014-07-12T07:07:39Z</time>
      </trkpt>
      <trkpt lat="44.32913" lon="2.64819">
        <ele>657.6791992</ele>
        <time>2014-07-12T07:07:44Z</time>
      </trkpt>
      <trkpt lat="44.32901" lon="2.64816">
        <ele>657.1984863</ele>
        <time>2014-07-12T07:07:48Z</time>
      </trkpt>
      <trkpt lat="44.32887" lon="2.64813">
        <ele>655.7565918</ele>
        <time>2014-07-12T07:07:53Z</time>
      </trkpt>
      <trkpt lat="44.32872" lon="2.6481">
        <ele>655.2758789</ele>
        <time>2014-07-12T07:07:58Z</time>
      </trkpt>
      <trkpt lat="44.32857" lon="2.64807">
        <ele>653.8339844</ele>
        <time>2014-07-12T07:08:03Z</time>
      </trkpt>
      <trkpt lat="44.3284" lon="2.64805">
        <ele>652.3918457</ele>
        <time>2014-07-12T07:08:09Z</time>
      </trkpt>
      <trkpt lat="44.32828" lon="2.64801">
        <ele>651.4304199</ele>
        <time>2014-07-12T07:08:13Z</time>
      </trkpt>
      <trkpt lat="44.32816" lon="2.648">
        <ele>650.4692383</ele>
        <time>2014-07-12T07:08:17Z</time>
      </trkpt>
      <trkpt lat="44.32806" lon="2.64796">
        <ele>649.0270996</ele>
        <time>2014-07-12T07:08:21Z</time>
      </trkpt>
      <trkpt lat="44.32792" lon="2.64791">
        <ele>646.1433105</ele>
        <time>2014-07-12T07:08:26Z</time>
      </trkpt>
      <trkpt lat="44.32777" lon="2.6479">
        <ele>644.7011719</ele>
        <time>2014-07-12T07:08:31Z</time>
      </trkpt>
      <trkpt lat="44.32766" lon="2.6479">
        <ele>642.7788086</ele>
        <time>2014-07-12T07:08:35Z</time>
      </trkpt>
      <trkpt lat="44.32754" lon="2.64789">
        <ele>642.2980957</ele>
        <time>2014-07-12T07:08:39Z</time>
      </trkpt>
      <trkpt lat="44.32739" lon="2.64787">
        <ele>640.855957</ele>
        <time>2014-07-12T07:08:44Z</time>
      </trkpt>
      <trkpt lat="44.32736" lon="2.64786">
        <ele>640.3754883</ele>
        <time>2014-07-12T07:08:45Z</time>
      </trkpt>
      <trkpt lat="44.32721" lon="2.64791">
        <ele>639.4140625</ele>
        <time>2014-07-12T07:08:51Z</time>
      </trkpt>
      <trkpt lat="44.32711" lon="2.64787">
        <ele>639.4140625</ele>
        <time>2014-07-12T07:08:55Z</time>
      </trkpt>
      <trkpt lat="44.32698" lon="2.64782">
        <ele>638.9335938</ele>
        <time>2014-07-12T07:09:00Z</time>
      </trkpt>
      <trkpt lat="44.32684" lon="2.64783">
        <ele>637.972168</ele>
        <time>2014-07-12T07:09:05Z</time>
      </trkpt>
      <trkpt lat="44.32675" lon="2.64782">
        <ele>637.0107422</ele>
        <time>2014-07-12T07:09:09Z</time>
      </trkpt>
      <trkpt lat="44.32662" lon="2.64781">
        <ele>635.5686035</ele>
        <time>2014-07-12T07:09:15Z</time>
      </trkpt>
      <trkpt lat="44.32648" lon="2.6478">
        <ele>636.0495605</ele>
        <time>2014-07-12T07:09:20Z</time>
      </trkpt>
      <trkpt lat="44.32638" lon="2.64782">
        <ele>637.0107422</ele>
        <time>2014-07-12T07:09:24Z</time>
      </trkpt>
      <trkpt lat="44.32626" lon="2.6479">
        <ele>638.4528809</ele>
        <time>2014-07-12T07:09:30Z</time>
      </trkpt>
      <trkpt lat="44.32615" lon="2.64794">
        <ele>639.4140625</ele>
        <time>2014-07-12T07:09:35Z</time>
      </trkpt>
      <trkpt lat="44.32605" lon="2.64797">
        <ele>641.3366699</ele>
        <time>2014-07-12T07:09:39Z</time>
      </trkpt>
      <trkpt lat="44.32594" lon="2.64797">
        <ele>645.6625977</ele>
        <time>2014-07-12T07:09:44Z</time>
      </trkpt>
      <trkpt lat="44.32586" lon="2.64798">
        <ele>649.0270996</ele>
        <time>2014-07-12T07:09:48Z</time>
      </trkpt>
      <trkpt lat="44.32575" lon="2.64796">
        <ele>648.065918</ele>
        <time>2014-07-12T07:09:53Z</time>
      </trkpt>
      <trkpt lat="44.3256" lon="2.64795">
        <ele>648.5463867</ele>
        <time>2014-07-12T07:09:59Z</time>
      </trkpt>
      <trkpt lat="44.32548" lon="2.64796">
        <ele>649.9885254</ele>
        <time>2014-07-12T07:10:04Z</time>
      </trkpt>
      <trkpt lat="44.32536" lon="2.64797">
        <ele>650.949707</ele>
        <time>2014-07-12T07:10:09Z</time>
      </trkpt>
      <trkpt lat="44.32521" lon="2.64797">
        <ele>652.8725586</ele>
        <time>2014-07-12T07:10:15Z</time>
      </trkpt>
      <trkpt lat="44.32512" lon="2.64796">
        <ele>654.3146973</ele>
        <time>2014-07-12T07:10:19Z</time>
      </trkpt>
      <trkpt lat="44.32498" lon="2.64794">
        <ele>655.7565918</ele>
        <time>2014-07-12T07:10:25Z</time>
      </trkpt>
      <trkpt lat="44.32487" lon="2.64791">
        <ele>657.1984863</ele>
        <time>2014-07-12T07:10:30Z</time>
      </trkpt>
      <trkpt lat="44.32479" lon="2.64788">
        <ele>657.1984863</ele>
        <time>2014-07-12T07:10:34Z</time>
      </trkpt>
      <trkpt lat="44.3247" lon="2.64783">
        <ele>658.6403809</ele>
        <time>2014-07-12T07:10:38Z</time>
      </trkpt>
      <trkpt lat="44.32459" lon="2.6478">
        <ele>659.1210938</ele>
        <time>2014-07-12T07:10:43Z</time>
      </trkpt>
      <trkpt lat="44.32454" lon="2.64778">
        <ele>659.6018066</ele>
        <time>2014-07-12T07:10:45Z</time>
      </trkpt>
      <trkpt lat="44.32439" lon="2.64772">
        <ele>660.5629883</ele>
        <time>2014-07-12T07:10:52Z</time>
      </trkpt>
      <trkpt lat="44.32425" lon="2.64766">
        <ele>662.4855957</ele>
        <time>2014-07-12T07:10:58Z</time>
      </trkpt>
      <trkpt lat="44.32411" lon="2.6476">
        <ele>663.9274902</ele>
        <time>2014-07-12T07:11:04Z</time>
      </trkpt>
      <trkpt lat="44.32408" lon="2.64758">
        <ele>664.4082031</ele>
        <time>2014-07-12T07:11:05Z</time>
      </trkpt>
      <trkpt lat="44.32396" lon="2.64752">
        <ele>665.8503418</ele>
        <time>2014-07-12T07:11:10Z</time>
      </trkpt>
      <trkpt lat="44.32391" lon="2.6475">
        <ele>666.3308105</ele>
        <time>2014-07-12T07:11:12Z</time>
      </trkpt>
      <trkpt lat="44.32376" lon="2.64746">
        <ele>667.2922363</ele>
        <time>2014-07-12T07:11:18Z</time>
      </trkpt>
      <trkpt lat="44.32367" lon="2.64746">
        <ele>666.8115234</ele>
        <time>2014-07-12T07:11:22Z</time>
      </trkpt>
      <trkpt lat="44.32358" lon="2.64746">
        <ele>666.3308105</ele>
        <time>2014-07-12T07:11:26Z</time>
      </trkpt>
      <trkpt lat="44.32347" lon="2.64752">
        <ele>666.8115234</ele>
        <time>2014-07-12T07:11:31Z</time>
      </trkpt>
      <trkpt lat="44.32339" lon="2.64759">
        <ele>667.7727051</ele>
        <time>2014-07-12T07:11:35Z</time>
      </trkpt>
      <trkpt lat="44.32334" lon="2.64766">
        <ele>668.734375</ele>
        <time>2014-07-12T07:11:38Z</time>
      </trkpt>
      <trkpt lat="44.32326" lon="2.6478">
        <ele>670.1762695</ele>
        <time>2014-07-12T07:11:43Z</time>
      </trkpt>
      <trkpt lat="44.32321" lon="2.64792">
        <ele>670.6569824</ele>
        <time>2014-07-12T07:11:47Z</time>
      </trkpt>
      <trkpt lat="44.32313" lon="2.64809">
        <ele>671.6181641</ele>
        <time>2014-07-12T07:11:53Z</time>
      </trkpt>
      <trkpt lat="44.32307" lon="2.64821">
        <ele>673.0603027</ele>
        <time>2014-07-12T07:11:57Z</time>
      </trkpt>
      <trkpt lat="44.32299" lon="2.64822">
        <ele>674.5021973</ele>
        <time>2014-07-12T07:12:01Z</time>
      </trkpt>
      <trkpt lat="44.3229" lon="2.64804">
        <ele>675.4633789</ele>
        <time>2014-07-12T07:12:07Z</time>
      </trkpt>
      <trkpt lat="44.32283" lon="2.6479">
        <ele>675.9440918</ele>
        <time>2014-07-12T07:12:12Z</time>
      </trkpt>
      <trkpt lat="44.32278" lon="2.64777">
        <ele>676.4248047</ele>
        <time>2014-07-12T07:12:16Z</time>
      </trkpt>
      <trkpt lat="44.32271" lon="2.64754">
        <ele>676.9055176</ele>
        <time>2014-07-12T07:12:23Z</time>
      </trkpt>
      <trkpt lat="44.32268" lon="2.64735">
        <ele>677.8666992</ele>
        <time>2014-07-12T07:12:28Z</time>
      </trkpt>
      <trkpt lat="44.32262" lon="2.64713">
        <ele>678.3474121</ele>
        <time>2014-07-12T07:12:35Z</time>
      </trkpt>
      <trkpt lat="44.32255" lon="2.64695">
        <ele>679.7893066</ele>
        <time>2014-07-12T07:12:41Z</time>
      </trkpt>
      <trkpt lat="44.32244" lon="2.64682">
        <ele>680.7507324</ele>
        <time>2014-07-12T07:12:47Z</time>
      </trkpt>
      <trkpt lat="44.32233" lon="2.64672">
        <ele>681.7119141</ele>
        <time>2014-07-12T07:12:53Z</time>
      </trkpt>
      <trkpt lat="44.32223" lon="2.64665">
        <ele>682.6733398</ele>
        <time>2014-07-12T07:12:58Z</time>
      </trkpt>
      <trkpt lat="44.32214" lon="2.6466">
        <ele>683.1538086</ele>
        <time>2014-07-12T07:13:03Z</time>
      </trkpt>
      <trkpt lat="44.32202" lon="2.64656">
        <ele>683.6345215</ele>
        <time>2014-07-12T07:13:09Z</time>
      </trkpt>
      <trkpt lat="44.32191" lon="2.64655">
        <ele>684.5961914</ele>
        <time>2014-07-12T07:13:13Z</time>
      </trkpt>
      <trkpt lat="44.3218" lon="2.64653">
        <ele>686.5187988</ele>
        <time>2014-07-12T07:13:18Z</time>
      </trkpt>
      <trkpt lat="44.3217" lon="2.64651">
        <ele>687.4799805</ele>
        <time>2014-07-12T07:13:22Z</time>
      </trkpt>
      <trkpt lat="44.3216" lon="2.6465">
        <ele>687.9606934</ele>
        <time>2014-07-12T07:13:26Z</time>
      </trkpt>
      <trkpt lat="44.32151" lon="2.64648">
        <ele>687.4799805</ele>
        <time>2014-07-12T07:13:30Z</time>
      </trkpt>
      <trkpt lat="44.32146" lon="2.64647">
        <ele>686.5187988</ele>
        <time>2014-07-12T07:13:34Z</time>
      </trkpt>
      <trkpt lat="44.32139" lon="2.64644">
        <ele>685.0769043</ele>
        <time>2014-07-12T07:13:39Z</time>
      </trkpt>
      <trkpt lat="44.32129" lon="2.64644">
        <ele>684.1154785</ele>
        <time>2014-07-12T07:13:43Z</time>
      </trkpt>
      <trkpt lat="44.32115" lon="2.64641">
        <ele>683.6345215</ele>
        <time>2014-07-12T07:13:48Z</time>
      </trkpt>
      <trkpt lat="44.321" lon="2.64638">
        <ele>683.6345215</ele>
        <time>2014-07-12T07:13:54Z</time>
      </trkpt>
      <trkpt lat="44.32091" lon="2.64636">
        <ele>683.6345215</ele>
        <time>2014-07-12T07:13:58Z</time>
      </trkpt>
      <trkpt lat="44.32086" lon="2.64635">
        <ele>683.1538086</ele>
        <time>2014-07-12T07:14:03Z</time>
      </trkpt>
      <trkpt lat="44.32084" lon="2.64634">
        <ele>682.192627</ele>
        <time>2014-07-12T07:14:09Z</time>
      </trkpt>
      <trkpt lat="44.32078" lon="2.64633">
        <ele>681.7119141</ele>
        <time>2014-07-12T07:14:14Z</time>
      </trkpt>
      <trkpt lat="44.3207" lon="2.64632">
        <ele>681.7119141</ele>
        <time>2014-07-12T07:14:18Z</time>
      </trkpt>
      <trkpt lat="44.32065" lon="2.64631">
        <ele>681.7119141</ele>
        <time>2014-07-12T07:14:20Z</time>
      </trkpt>
      <trkpt lat="44.32052" lon="2.6463">
        <ele>680.2700195</ele>
        <time>2014-07-12T07:14:25Z</time>
      </trkpt>
      <trkpt lat="44.32049" lon="2.64629">
        <ele>679.7893066</ele>
        <time>2014-07-12T07:14:26Z</time>
      </trkpt>
      <trkpt lat="44.32033" lon="2.64627">
        <ele>676.9055176</ele>
        <time>2014-07-12T07:14:32Z</time>
      </trkpt>
      <trkpt lat="44.32021" lon="2.64625">
        <ele>675.4633789</ele>
        <time>2014-07-12T07:14:36Z</time>
      </trkpt>
      <trkpt lat="44.32008" lon="2.64626">
        <ele>672.5795898</ele>
        <time>2014-07-12T07:14:41Z</time>
      </trkpt>
      <trkpt lat="44.31988" lon="2.64619">
        <ele>669.6958008</ele>
        <time>2014-07-12T07:14:48Z</time>
      </trkpt>
      <trkpt lat="44.31975" lon="2.64616">
        <ele>669.2150879</ele>
        <time>2014-07-12T07:14:52Z</time>
      </trkpt>
      <trkpt lat="44.31961" lon="2.64613">
        <ele>666.8115234</ele>
        <time>2014-07-12T07:14:57Z</time>
      </trkpt>
      <trkpt lat="44.31946" lon="2.64611">
        <ele>666.3308105</ele>
        <time>2014-07-12T07:15:02Z</time>
      </trkpt>
      <trkpt lat="44.31934" lon="2.6461">
        <ele>664.888916</ele>
        <time>2014-07-12T07:15:06Z</time>
      </trkpt>
      <trkpt lat="44.31918" lon="2.64612">
        <ele>661.5244141</ele>
        <time>2014-07-12T07:15:12Z</time>
      </trkpt>
      <trkpt lat="44.31906" lon="2.64614">
        <ele>659.6018066</ele>
        <time>2014-07-12T07:15:16Z</time>
      </trkpt>
      <trkpt lat="44.31895" lon="2.64614">
        <ele>658.6403809</ele>
        <time>2014-07-12T07:15:20Z</time>
      </trkpt>
      <trkpt lat="44.31874" lon="2.64615">
        <ele>657.6791992</ele>
        <time>2014-07-12T07:15:27Z</time>
      </trkpt>
      <trkpt lat="44.31861" lon="2.64607">
        <ele>658.1599121</ele>
        <time>2014-07-12T07:15:32Z</time>
      </trkpt>
      <trkpt lat="44.31852" lon="2.64595">
        <ele>658.6403809</ele>
        <time>2014-07-12T07:15:36Z</time>
      </trkpt>
      <trkpt lat="44.3184" lon="2.64578">
        <ele>658.6403809</ele>
        <time>2014-07-12T07:15:42Z</time>
      </trkpt>
      <trkpt lat="44.31828" lon="2.64561">
        <ele>660.0822754</ele>
        <time>2014-07-12T07:15:48Z</time>
      </trkpt>
      <trkpt lat="44.31815" lon="2.64546">
        <ele>660.5629883</ele>
        <time>2014-07-12T07:15:54Z</time>
      </trkpt>
      <trkpt lat="44.31804" lon="2.64537">
        <ele>660.0822754</ele>
        <time>2014-07-12T07:15:59Z</time>
      </trkpt>
      <trkpt lat="44.3179" lon="2.64528">
        <ele>660.0822754</ele>
        <time>2014-07-12T07:16:05Z</time>
      </trkpt>
      <trkpt lat="44.31782" lon="2.64524">
        <ele>658.6403809</ele>
        <time>2014-07-12T07:16:09Z</time>
      </trkpt>
      <trkpt lat="44.31771" lon="2.64521">
        <ele>658.6403809</ele>
        <time>2014-07-12T07:16:13Z</time>
      </trkpt>
      <trkpt lat="44.3176" lon="2.64519">
        <ele>657.6791992</ele>
        <time>2014-07-12T07:16:17Z</time>
      </trkpt>
      <trkpt lat="44.31746" lon="2.64516">
        <ele>656.7177734</ele>
        <time>2014-07-12T07:16:22Z</time>
      </trkpt>
      <trkpt lat="44.31729" lon="2.64514">
        <ele>655.2758789</ele>
        <time>2014-07-12T07:16:28Z</time>
      </trkpt>
      <trkpt lat="44.31717" lon="2.64515">
        <ele>653.8339844</ele>
        <time>2014-07-12T07:16:32Z</time>
      </trkpt>
      <trkpt lat="44.31702" lon="2.64515">
        <ele>651.9111328</ele>
        <time>2014-07-12T07:16:37Z</time>
      </trkpt>
      <trkpt lat="44.31687" lon="2.64515">
        <ele>649.9885254</ele>
        <time>2014-07-12T07:16:42Z</time>
      </trkpt>
      <trkpt lat="44.3167" lon="2.6451">
        <ele>649.0270996</ele>
        <time>2014-07-12T07:16:48Z</time>
      </trkpt>
      <trkpt lat="44.3166" lon="2.64504">
        <ele>648.5463867</ele>
        <time>2014-07-12T07:16:52Z</time>
      </trkpt>
      <trkpt lat="44.31647" lon="2.64491">
        <ele>646.1433105</ele>
        <time>2014-07-12T07:16:57Z</time>
      </trkpt>
      <trkpt lat="44.31636" lon="2.64488">
        <ele>643.7399902</ele>
        <time>2014-07-12T07:17:01Z</time>
      </trkpt>
      <trkpt lat="44.31629" lon="2.64493">
        <ele>641.8173828</ele>
        <time>2014-07-12T07:17:04Z</time>
      </trkpt>
      <trkpt lat="44.31622" lon="2.64508">
        <ele>639.4140625</ele>
        <time>2014-07-12T07:17:09Z</time>
      </trkpt>
      <trkpt lat="44.31612" lon="2.64526">
        <ele>637.4914551</ele>
        <time>2014-07-12T07:17:14Z</time>
      </trkpt>
      <trkpt lat="44.31603" lon="2.64544">
        <ele>636.0495605</ele>
        <time>2014-07-12T07:17:19Z</time>
      </trkpt>
      <trkpt lat="44.31594" lon="2.64559">
        <ele>634.6074219</ele>
        <time>2014-07-12T07:17:24Z</time>
      </trkpt>
      <trkpt lat="44.31584" lon="2.64569">
        <ele>632.6848145</ele>
        <time>2014-07-12T07:17:29Z</time>
      </trkpt>
      <trkpt lat="44.31572" lon="2.64582">
        <ele>633.1652832</ele>
        <time>2014-07-12T07:17:35Z</time>
      </trkpt>
      <trkpt lat="44.31572" lon="2.64585">
        <ele>633.1652832</ele>
        <time>2014-07-12T07:17:36Z</time>
      </trkpt>
      <trkpt lat="44.31573" lon="2.64602">
        <ele>632.6848145</ele>
        <time>2014-07-12T07:17:41Z</time>
      </trkpt>
      <trkpt lat="44.31574" lon="2.64619">
        <ele>632.6848145</ele>
        <time>2014-07-12T07:17:47Z</time>
      </trkpt>
      <trkpt lat="44.31572" lon="2.64631">
        <ele>635.0881348</ele>
        <time>2014-07-12T07:17:51Z</time>
      </trkpt>
      <trkpt lat="44.31569" lon="2.64647">
        <ele>638.4528809</ele>
        <time>2014-07-12T07:17:56Z</time>
      </trkpt>
      <trkpt lat="44.31562" lon="2.64663">
        <ele>642.2980957</ele>
        <time>2014-07-12T07:18:02Z</time>
      </trkpt>
      <trkpt lat="44.31554" lon="2.64676">
        <ele>645.6625977</ele>
        <time>2014-07-12T07:18:07Z</time>
      </trkpt>
      <trkpt lat="44.31552" lon="2.64681">
        <ele>647.1044922</ele>
        <time>2014-07-12T07:18:09Z</time>
      </trkpt>
      <trkpt lat="44.31547" lon="2.64695">
        <ele>648.065918</ele>
        <time>2014-07-12T07:18:14Z</time>
      </trkpt>
      <trkpt lat="44.31545" lon="2.64712">
        <ele>649.0270996</ele>
        <time>2014-07-12T07:18:19Z</time>
      </trkpt>
      <trkpt lat="44.31551" lon="2.64728">
        <ele>649.9885254</ele>
        <time>2014-07-12T07:18:25Z</time>
      </trkpt>
      <trkpt lat="44.31556" lon="2.64741">
        <ele>650.4692383</ele>
        <time>2014-07-12T07:18:29Z</time>
      </trkpt>
      <trkpt lat="44.31562" lon="2.64753">
        <ele>652.3918457</ele>
        <time>2014-07-12T07:18:34Z</time>
      </trkpt>
      <trkpt lat="44.31565" lon="2.64758">
        <ele>652.3918457</ele>
        <time>2014-07-12T07:18:36Z</time>
      </trkpt>
      <trkpt lat="44.31569" lon="2.64777">
        <ele>654.795166</ele>
        <time>2014-07-12T07:18:43Z</time>
      </trkpt>
      <trkpt lat="44.3157" lon="2.64795">
        <ele>656.7177734</ele>
        <time>2014-07-12T07:18:49Z</time>
      </trkpt>
      <trkpt lat="44.31571" lon="2.64808">
        <ele>657.1984863</ele>
        <time>2014-07-12T07:18:53Z</time>
      </trkpt>
      <trkpt lat="44.31571" lon="2.6482">
        <ele>659.1210938</ele>
        <time>2014-07-12T07:18:57Z</time>
      </trkpt>
      <trkpt lat="44.31571" lon="2.64833">
        <ele>660.5629883</ele>
        <time>2014-07-12T07:19:02Z</time>
      </trkpt>
      <trkpt lat="44.3157" lon="2.64847">
        <ele>662.005127</ele>
        <time>2014-07-12T07:19:09Z</time>
      </trkpt>
      <trkpt lat="44.3157" lon="2.64859">
        <ele>662.9663086</ele>
        <time>2014-07-12T07:19:15Z</time>
      </trkpt>
      <trkpt lat="44.31569" lon="2.64863">
        <ele>667.7727051</ele>
        <time>2014-07-12T07:19:22Z</time>
      </trkpt>
      <trkpt lat="44.31571" lon="2.64865">
        <ele>669.6958008</ele>
        <time>2014-07-12T07:19:32Z</time>
      </trkpt>
      <trkpt lat="44.31574" lon="2.64875">
        <ele>671.1376953</ele>
        <time>2014-07-12T07:19:38Z</time>
      </trkpt>
      <trkpt lat="44.31574" lon="2.64878">
        <ele>670.6569824</ele>
        <time>2014-07-12T07:19:39Z</time>
      </trkpt>
      <trkpt lat="44.31575" lon="2.64882">
        <ele>670.6569824</ele>
        <time>2014-07-12T07:19:41Z</time>
      </trkpt>
      <trkpt lat="44.31577" lon="2.64888">
        <ele>671.6181641</ele>
        <time>2014-07-12T07:19:44Z</time>
      </trkpt>
      <trkpt lat="44.3158" lon="2.64899">
        <ele>674.5021973</ele>
        <time>2014-07-12T07:19:50Z</time>
      </trkpt>
      <trkpt lat="44.3158" lon="2.64903">
        <ele>674.5021973</ele>
        <time>2014-07-12T07:19:52Z</time>
      </trkpt>
      <trkpt lat="44.31581" lon="2.64918">
        <ele>675.9440918</ele>
        <time>2014-07-12T07:19:59Z</time>
      </trkpt>
      <trkpt lat="44.31579" lon="2.64935">
        <ele>675.4633789</ele>
        <time>2014-07-12T07:20:07Z</time>
      </trkpt>
      <trkpt lat="44.31578" lon="2.64953">
        <ele>676.9055176</ele>
        <time>2014-07-12T07:20:15Z</time>
      </trkpt>
      <trkpt lat="44.31579" lon="2.64968">
        <ele>678.3474121</ele>
        <time>2014-07-12T07:20:22Z</time>
      </trkpt>
      <trkpt lat="44.31578" lon="2.64983">
        <ele>678.3474121</ele>
        <time>2014-07-12T07:20:29Z</time>
      </trkpt>
      <trkpt lat="44.31574" lon="2.64998">
        <ele>679.3085938</ele>
        <time>2014-07-12T07:20:37Z</time>
      </trkpt>
      <trkpt lat="44.31568" lon="2.6501">
        <ele>680.2700195</ele>
        <time>2014-07-12T07:20:44Z</time>
      </trkpt>
      <trkpt lat="44.31568" lon="2.65011">
        <ele>680.2700195</ele>
        <time>2014-07-12T07:20:48Z</time>
      </trkpt>
      <trkpt lat="44.31562" lon="2.65019">
        <ele>679.7893066</ele>
        <time>2014-07-12T07:20:54Z</time>
      </trkpt>
      <trkpt lat="44.31555" lon="2.65027">
        <ele>680.2700195</ele>
        <time>2014-07-12T07:21:00Z</time>
      </trkpt>
      <trkpt lat="44.31547" lon="2.65032">
        <ele>679.7893066</ele>
        <time>2014-07-12T07:21:05Z</time>
      </trkpt>
      <trkpt lat="44.31533" lon="2.65041">
        <ele>680.2700195</ele>
        <time>2014-07-12T07:21:11Z</time>
      </trkpt>
      <trkpt lat="44.31524" lon="2.65047">
        <ele>681.7119141</ele>
        <time>2014-07-12T07:21:15Z</time>
      </trkpt>
      <trkpt lat="44.31511" lon="2.65054">
        <ele>683.1538086</ele>
        <time>2014-07-12T07:21:20Z</time>
      </trkpt>
      <trkpt lat="44.31495" lon="2.6506">
        <ele>685.557373</ele>
        <time>2014-07-12T07:21:27Z</time>
      </trkpt>
      <trkpt lat="44.31483" lon="2.65062">
        <ele>686.5187988</ele>
        <time>2014-07-12T07:21:32Z</time>
      </trkpt>
      <trkpt lat="44.31474" lon="2.65065">
        <ele>687.4799805</ele>
        <time>2014-07-12T07:21:37Z</time>
      </trkpt>
      <trkpt lat="44.3147" lon="2.65066">
        <ele>687.4799805</ele>
        <time>2014-07-12T07:21:41Z</time>
      </trkpt>
      <trkpt lat="44.31472" lon="2.65065">
        <ele>686.9992676</ele>
        <time>2014-07-12T07:21:48Z</time>
      </trkpt>
      <trkpt lat="44.31471" lon="2.65065">
        <ele>686.5187988</ele>
        <time>2014-07-12T07:21:52Z</time>
      </trkpt>
      <trkpt lat="44.31472" lon="2.65066">
        <ele>686.9992676</ele>
        <time>2014-07-12T07:21:57Z</time>
      </trkpt>
      <trkpt lat="44.31474" lon="2.65066">
        <ele>687.4799805</ele>
        <time>2014-07-12T07:22:04Z</time>
      </trkpt>
      <trkpt lat="44.31476" lon="2.65065">
        <ele>687.4799805</ele>
        <time>2014-07-12T07:22:09Z</time>
      </trkpt>
      <trkpt lat="44.31476" lon="2.65064">
        <ele>687.4799805</ele>
        <time>2014-07-12T07:22:10Z</time>
      </trkpt>
      <trkpt lat="44.3141" lon="2.6511">
        <ele>694.6896973</ele>
        <time>2014-07-12T07:23:36Z</time>
      </trkpt>
      <trkpt lat="44.31398" lon="2.65123">
        <ele>693.7285156</ele>
        <time>2014-07-12T07:23:42Z</time>
      </trkpt>
      <trkpt lat="44.31389" lon="2.65134">
        <ele>694.6896973</ele>
        <time>2014-07-12T07:23:47Z</time>
      </trkpt>
      <trkpt lat="44.31379" lon="2.65147">
        <ele>695.651123</ele>
        <time>2014-07-12T07:23:53Z</time>
      </trkpt>
      <trkpt lat="44.31372" lon="2.65159">
        <ele>696.1318359</ele>
        <time>2014-07-12T07:23:58Z</time>
      </trkpt>
      <trkpt lat="44.31363" lon="2.65172">
        <ele>696.1318359</ele>
        <time>2014-07-12T07:24:03Z</time>
      </trkpt>
      <trkpt lat="44.31351" lon="2.65188">
        <ele>697.0930176</ele>
        <time>2014-07-12T07:24:09Z</time>
      </trkpt>
      <trkpt lat="44.31336" lon="2.65207">
        <ele>695.1704102</ele>
        <time>2014-07-12T07:24:16Z</time>
      </trkpt>
      <trkpt lat="44.31325" lon="2.65218">
        <ele>693.2478027</ele>
        <time>2014-07-12T07:24:21Z</time>
      </trkpt>
      <trkpt lat="44.3131" lon="2.65232">
        <ele>693.2478027</ele>
        <time>2014-07-12T07:24:27Z</time>
      </trkpt>
      <trkpt lat="44.313" lon="2.65243">
        <ele>692.767334</ele>
        <time>2014-07-12T07:24:32Z</time>
      </trkpt>
      <trkpt lat="44.31297" lon="2.65245">
        <ele>691.8059082</ele>
        <time>2014-07-12T07:24:34Z</time>
      </trkpt>
      <trkpt lat="44.31297" lon="2.65248">
        <ele>691.3251953</ele>
        <time>2014-07-12T07:24:39Z</time>
      </trkpt>
      <trkpt lat="44.31295" lon="2.6525">
        <ele>690.8444824</ele>
        <time>2014-07-12T07:24:45Z</time>
      </trkpt>
      <trkpt lat="44.31296" lon="2.65251">
        <ele>690.3640137</ele>
        <time>2014-07-12T07:24:53Z</time>
      </trkpt>
      <trkpt lat="44.31296" lon="2.65251">
        <ele>690.8444824</ele>
        <time>2014-07-12T07:24:58Z</time>
      </trkpt>
      <trkpt lat="44.31295" lon="2.65251">
        <ele>688.9221191</ele>
        <time>2014-07-12T07:25:08Z</time>
      </trkpt>
      <trkpt lat="44.31296" lon="2.65251">
        <ele>688.4414063</ele>
        <time>2014-07-12T07:25:13Z</time>
      </trkpt>
      <trkpt lat="44.31296" lon="2.65252">
        <ele>688.9221191</ele>
        <time>2014-07-12T07:25:25Z</time>
      </trkpt>
      <trkpt lat="44.31295" lon="2.65252">
        <ele>689.4025879</ele>
        <time>2014-07-12T07:25:37Z</time>
      </trkpt>
      <trkpt lat="44.31295" lon="2.65252">
        <ele>688.9221191</ele>
        <time>2014-07-12T07:25:49Z</time>
      </trkpt>
      <trkpt lat="44.31296" lon="2.65251">
        <ele>689.4025879</ele>
        <time>2014-07-12T07:25:57Z</time>
      </trkpt>
      <trkpt lat="44.31295" lon="2.65248">
        <ele>690.3640137</ele>
        <time>2014-07-12T07:26:03Z</time>
      </trkpt>
      <trkpt lat="44.31297" lon="2.65251">
        <ele>692.767334</ele>
        <time>2014-07-12T07:26:28Z</time>
      </trkpt>
      <trkpt lat="44.31297" lon="2.65251">
        <ele>693.7285156</ele>
        <time>2014-07-12T07:26:34Z</time>
      </trkpt>
      <trkpt lat="44.31296" lon="2.65251">
        <ele>693.2478027</ele>
        <time>2014-07-12T07:26:38Z</time>
      </trkpt>
      <trkpt lat="44.31292" lon="2.65253">
        <ele>691.8059082</ele>
        <time>2014-07-12T07:26:43Z</time>
      </trkpt>
      <trkpt lat="44.3129" lon="2.65256">
        <ele>690.8444824</ele>
        <time>2014-07-12T07:26:47Z</time>
      </trkpt>
      <trkpt lat="44.31287" lon="2.65259">
        <ele>689.8833008</ele>
        <time>2014-07-12T07:26:50Z</time>
      </trkpt>
      <trkpt lat="44.31281" lon="2.65269">
        <ele>688.9221191</ele>
        <time>2014-07-12T07:26:58Z</time>
      </trkpt>
      <trkpt lat="44.31278" lon="2.65271">
        <ele>688.9221191</ele>
        <time>2014-07-12T07:26:59Z</time>
      </trkpt>
      <trkpt lat="44.31273" lon="2.65279">
        <ele>687.9606934</ele>
        <time>2014-07-12T07:27:03Z</time>
      </trkpt>
      <trkpt lat="44.31266" lon="2.65287">
        <ele>686.0380859</ele>
        <time>2014-07-12T07:27:05Z</time>
      </trkpt>
      <trkpt lat="44.31257" lon="2.65299">
        <ele>683.6345215</ele>
        <time>2014-07-12T07:27:09Z</time>
      </trkpt>
      <trkpt lat="44.31247" lon="2.65312">
        <ele>680.7507324</ele>
        <time>2014-07-12T07:27:13Z</time>
      </trkpt>
      <trkpt lat="44.31237" lon="2.65322">
        <ele>678.3474121</ele>
        <time>2014-07-12T07:27:17Z</time>
      </trkpt>
      <trkpt lat="44.3122" lon="2.65335">
        <ele>675.9440918</ele>
        <time>2014-07-12T07:27:23Z</time>
      </trkpt>
      <trkpt lat="44.31206" lon="2.65355">
        <ele>672.5795898</ele>
        <time>2014-07-12T07:27:29Z</time>
      </trkpt>
      <trkpt lat="44.31197" lon="2.65367">
        <ele>671.6181641</ele>
        <time>2014-07-12T07:27:33Z</time>
      </trkpt>
      <trkpt lat="44.31183" lon="2.65373">
        <ele>670.1762695</ele>
        <time>2014-07-12T07:27:38Z</time>
      </trkpt>
      <trkpt lat="44.31171" lon="2.65375">
        <ele>669.2150879</ele>
        <time>2014-07-12T07:27:42Z</time>
      </trkpt>
      <trkpt lat="44.31153" lon="2.6538">
        <ele>668.2536621</ele>
        <time>2014-07-12T07:27:48Z</time>
      </trkpt>
      <trkpt lat="44.31151" lon="2.65381">
        <ele>667.7727051</ele>
        <time>2014-07-12T07:27:49Z</time>
      </trkpt>
      <trkpt lat="44.3114" lon="2.65378">
        <ele>666.3308105</ele>
        <time>2014-07-12T07:27:54Z</time>
      </trkpt>
      <trkpt lat="44.31135" lon="2.65374">
        <ele>666.3308105</ele>
        <time>2014-07-12T07:27:56Z</time>
      </trkpt>
      <trkpt lat="44.31131" lon="2.65373">
        <ele>666.3308105</ele>
        <time>2014-07-12T07:27:58Z</time>
      </trkpt>
      <trkpt lat="44.3112" lon="2.65369">
        <ele>667.2922363</ele>
        <time>2014-07-12T07:28:04Z</time>
      </trkpt>
      <trkpt lat="44.31109" lon="2.65366">
        <ele>667.7727051</ele>
        <time>2014-07-12T07:28:09Z</time>
      </trkpt>
      <trkpt lat="44.31102" lon="2.65366">
        <ele>668.2536621</ele>
        <time>2014-07-12T07:28:11Z</time>
      </trkpt>
      <trkpt lat="44.31084" lon="2.65373">
        <ele>668.734375</ele>
        <time>2014-07-12T07:28:17Z</time>
      </trkpt>
      <trkpt lat="44.31065" lon="2.65382">
        <ele>665.3696289</ele>
        <time>2014-07-12T07:28:23Z</time>
      </trkpt>
      <trkpt lat="44.3105" lon="2.65391">
        <ele>664.888916</ele>
        <time>2014-07-12T07:28:28Z</time>
      </trkpt>
      <trkpt lat="44.31046" lon="2.65392">
        <ele>663.9274902</ele>
        <time>2014-07-12T07:28:29Z</time>
      </trkpt>
      <trkpt lat="44.31034" lon="2.65402">
        <ele>662.005127</ele>
        <time>2014-07-12T07:28:34Z</time>
      </trkpt>
      <trkpt lat="44.31025" lon="2.65405">
        <ele>660.5629883</ele>
        <time>2014-07-12T07:28:37Z</time>
      </trkpt>
      <trkpt lat="44.31013" lon="2.65408">
        <ele>656.7177734</ele>
        <time>2014-07-12T07:28:42Z</time>
      </trkpt>
      <trkpt lat="44.31001" lon="2.65413">
        <ele>651.9111328</ele>
        <time>2014-07-12T07:28:47Z</time>
      </trkpt>
      <trkpt lat="44.30993" lon="2.65419">
        <ele>650.949707</ele>
        <time>2014-07-12T07:28:50Z</time>
      </trkpt>
      <trkpt lat="44.30985" lon="2.65424">
        <ele>650.949707</ele>
        <time>2014-07-12T07:28:54Z</time>
      </trkpt>
      <trkpt lat="44.30968" lon="2.65439">
        <ele>648.5463867</ele>
        <time>2014-07-12T07:29:01Z</time>
      </trkpt>
      <trkpt lat="44.30958" lon="2.65445">
        <ele>646.6240234</ele>
        <time>2014-07-12T07:29:05Z</time>
      </trkpt>
      <trkpt lat="44.30941" lon="2.65454">
        <ele>646.1433105</ele>
        <time>2014-07-12T07:29:11Z</time>
      </trkpt>
      <trkpt lat="44.30928" lon="2.65459">
        <ele>643.2592773</ele>
        <time>2014-07-12T07:29:16Z</time>
      </trkpt>
      <trkpt lat="44.30926" lon="2.65462">
        <ele>641.8173828</ele>
        <time>2014-07-12T07:29:17Z</time>
      </trkpt>
      <trkpt lat="44.30919" lon="2.65476">
        <ele>637.4914551</ele>
        <time>2014-07-12T07:29:22Z</time>
      </trkpt>
      <trkpt lat="44.30912" lon="2.65489">
        <ele>636.0495605</ele>
        <time>2014-07-12T07:29:26Z</time>
      </trkpt>
      <trkpt lat="44.30906" lon="2.65497">
        <ele>633.6459961</ele>
        <time>2014-07-12T07:29:29Z</time>
      </trkpt>
      <trkpt lat="44.30896" lon="2.65505">
        <ele>631.7233887</ele>
        <time>2014-07-12T07:29:33Z</time>
      </trkpt>
      <trkpt lat="44.30881" lon="2.65517">
        <ele>630.762207</ele>
        <time>2014-07-12T07:29:39Z</time>
      </trkpt>
      <trkpt lat="44.30882" lon="2.65527">
        <ele>628.8395996</ele>
        <time>2014-07-12T07:29:44Z</time>
      </trkpt>
      <trkpt lat="44.30889" lon="2.65535">
        <ele>627.8781738</ele>
        <time>2014-07-12T07:29:50Z</time>
      </trkpt>
      <trkpt lat="44.30898" lon="2.65537">
        <ele>628.8395996</ele>
        <time>2014-07-12T07:29:55Z</time>
      </trkpt>
      <trkpt lat="44.3091" lon="2.65536">
        <ele>631.7233887</ele>
        <time>2014-07-12T07:30:01Z</time>
      </trkpt>
      <trkpt lat="44.30919" lon="2.65536">
        <ele>633.1652832</ele>
        <time>2014-07-12T07:30:05Z</time>
      </trkpt>
      <trkpt lat="44.30935" lon="2.65537">
        <ele>637.0107422</ele>
        <time>2014-07-12T07:30:12Z</time>
      </trkpt>
      <trkpt lat="44.30944" lon="2.65538">
        <ele>639.8947754</ele>
        <time>2014-07-12T07:30:16Z</time>
      </trkpt>
      <trkpt lat="44.30948" lon="2.65539">
        <ele>641.3366699</ele>
        <time>2014-07-12T07:30:18Z</time>
      </trkpt>
      <trkpt lat="44.30961" lon="2.65542">
        <ele>643.7399902</ele>
        <time>2014-07-12T07:30:23Z</time>
      </trkpt>
      <trkpt lat="44.3097" lon="2.65543">
        <ele>646.6240234</ele>
        <time>2014-07-12T07:30:28Z</time>
      </trkpt>
      <trkpt lat="44.30977" lon="2.65543">
        <ele>648.065918</ele>
        <time>2014-07-12T07:30:31Z</time>
      </trkpt>
      <trkpt lat="44.30988" lon="2.65547">
        <ele>649.5078125</ele>
        <time>2014-07-12T07:30:35Z</time>
      </trkpt>
      <trkpt lat="44.30996" lon="2.65549">
        <ele>650.4692383</ele>
        <time>2014-07-12T07:30:39Z</time>
      </trkpt>
      <trkpt lat="44.31009" lon="2.65555">
        <ele>652.8725586</ele>
        <time>2014-07-12T07:30:44Z</time>
      </trkpt>
      <trkpt lat="44.31019" lon="2.6556">
        <ele>654.795166</ele>
        <time>2014-07-12T07:30:49Z</time>
      </trkpt>
      <trkpt lat="44.31027" lon="2.65564">
        <ele>655.2758789</ele>
        <time>2014-07-12T07:30:53Z</time>
      </trkpt>
      <trkpt lat="44.31033" lon="2.65567">
        <ele>656.7177734</ele>
        <time>2014-07-12T07:30:57Z</time>
      </trkpt>
      <trkpt lat="44.31039" lon="2.6557">
        <ele>658.6403809</ele>
        <time>2014-07-12T07:31:00Z</time>
      </trkpt>
      <trkpt lat="44.31047" lon="2.65579">
        <ele>660.0822754</ele>
        <time>2014-07-12T07:31:05Z</time>
      </trkpt>
      <trkpt lat="44.31058" lon="2.65585">
        <ele>661.0437012</ele>
        <time>2014-07-12T07:31:10Z</time>
      </trkpt>
      <trkpt lat="44.31063" lon="2.6559">
        <ele>661.0437012</ele>
        <time>2014-07-12T07:31:13Z</time>
      </trkpt>
      <trkpt lat="44.31071" lon="2.65595">
        <ele>662.005127</ele>
        <time>2014-07-12T07:31:17Z</time>
      </trkpt>
      <trkpt lat="44.31085" lon="2.65607">
        <ele>664.888916</ele>
        <time>2014-07-12T07:31:25Z</time>
      </trkpt>
      <trkpt lat="44.31086" lon="2.65609">
        <ele>664.888916</ele>
        <time>2014-07-12T07:31:26Z</time>
      </trkpt>
      <trkpt lat="44.31098" lon="2.65621">
        <ele>665.3696289</ele>
        <time>2014-07-12T07:31:33Z</time>
      </trkpt>
      <trkpt lat="44.31107" lon="2.65631">
        <ele>665.3696289</ele>
        <time>2014-07-12T07:31:38Z</time>
      </trkpt>
      <trkpt lat="44.31119" lon="2.65639">
        <ele>666.8115234</ele>
        <time>2014-07-12T07:31:44Z</time>
      </trkpt>
      <trkpt lat="44.3113" lon="2.65651">
        <ele>666.8115234</ele>
        <time>2014-07-12T07:31:50Z</time>
      </trkpt>
      <trkpt lat="44.3114" lon="2.65662">
        <ele>667.7727051</ele>
        <time>2014-07-12T07:31:56Z</time>
      </trkpt>
      <trkpt lat="44.31149" lon="2.65673">
        <ele>670.1762695</ele>
        <time>2014-07-12T07:32:01Z</time>
      </trkpt>
      <trkpt lat="44.31156" lon="2.65689">
        <ele>672.098877</ele>
        <time>2014-07-12T07:32:07Z</time>
      </trkpt>
      <trkpt lat="44.31157" lon="2.65706">
        <ele>672.5795898</ele>
        <time>2014-07-12T07:32:13Z</time>
      </trkpt>
      <trkpt lat="44.31159" lon="2.65717">
        <ele>673.0603027</ele>
        <time>2014-07-12T07:32:17Z</time>
      </trkpt>
      <trkpt lat="44.31162" lon="2.65733">
        <ele>674.0214844</ele>
        <time>2014-07-12T07:32:23Z</time>
      </trkpt>
      <trkpt lat="44.31163" lon="2.65735">
        <ele>674.0214844</ele>
        <time>2014-07-12T07:32:24Z</time>
      </trkpt>
      <trkpt lat="44.31167" lon="2.65745">
        <ele>674.9829102</ele>
        <time>2014-07-12T07:32:28Z</time>
      </trkpt>
      <trkpt lat="44.31173" lon="2.6576">
        <ele>674.9829102</ele>
        <time>2014-07-12T07:32:34Z</time>
      </trkpt>
      <trkpt lat="44.3118" lon="2.65775">
        <ele>675.4633789</ele>
        <time>2014-07-12T07:32:40Z</time>
      </trkpt>
      <trkpt lat="44.3119" lon="2.65789">
        <ele>675.9440918</ele>
        <time>2014-07-12T07:32:46Z</time>
      </trkpt>
      <trkpt lat="44.31195" lon="2.65807">
        <ele>676.4248047</ele>
        <time>2014-07-12T07:32:52Z</time>
      </trkpt>
      <trkpt lat="44.31195" lon="2.65813">
        <ele>676.9055176</ele>
        <time>2014-07-12T07:32:54Z</time>
      </trkpt>
      <trkpt lat="44.31194" lon="2.65831">
        <ele>676.9055176</ele>
        <time>2014-07-12T07:33:00Z</time>
      </trkpt>
      <trkpt lat="44.31194" lon="2.65837">
        <ele>676.9055176</ele>
        <time>2014-07-12T07:33:02Z</time>
      </trkpt>
      <trkpt lat="44.31195" lon="2.65855">
        <ele>677.8666992</ele>
        <time>2014-07-12T07:33:08Z</time>
      </trkpt>
      <trkpt lat="44.31195" lon="2.65861">
        <ele>677.8666992</ele>
        <time>2014-07-12T07:33:10Z</time>
      </trkpt>
      <trkpt lat="44.31194" lon="2.65873">
        <ele>678.828125</ele>
        <time>2014-07-12T07:33:14Z</time>
      </trkpt>
      <trkpt lat="44.31194" lon="2.65893">
        <ele>680.2700195</ele>
        <time>2014-07-12T07:33:21Z</time>
      </trkpt>
      <trkpt lat="44.31194" lon="2.65911">
        <ele>680.7507324</ele>
        <time>2014-07-12T07:33:27Z</time>
      </trkpt>
      <trkpt lat="44.31195" lon="2.65927">
        <ele>681.7119141</ele>
        <time>2014-07-12T07:33:32Z</time>
      </trkpt>
      <trkpt lat="44.31195" lon="2.65938">
        <ele>683.1538086</ele>
        <time>2014-07-12T07:33:36Z</time>
      </trkpt>
      <trkpt lat="44.31193" lon="2.65953">
        <ele>684.5961914</ele>
        <time>2014-07-12T07:33:41Z</time>
      </trkpt>
      <trkpt lat="44.31193" lon="2.65963">
        <ele>685.0769043</ele>
        <time>2014-07-12T07:33:44Z</time>
      </trkpt>
      <trkpt lat="44.31197" lon="2.65973">
        <ele>686.5187988</ele>
        <time>2014-07-12T07:33:48Z</time>
      </trkpt>
      <trkpt lat="44.31208" lon="2.65991">
        <ele>688.9221191</ele>
        <time>2014-07-12T07:33:55Z</time>
      </trkpt>
      <trkpt lat="44.31217" lon="2.66002">
        <ele>692.2866211</ele>
        <time>2014-07-12T07:34:00Z</time>
      </trkpt>
      <trkpt lat="44.31228" lon="2.66014">
        <ele>694.2092285</ele>
        <time>2014-07-12T07:34:06Z</time>
      </trkpt>
      <trkpt lat="44.31237" lon="2.66026">
        <ele>696.1318359</ele>
        <time>2014-07-12T07:34:11Z</time>
      </trkpt>
      <trkpt lat="44.31241" lon="2.6603">
        <ele>696.6125488</ele>
        <time>2014-07-12T07:34:13Z</time>
      </trkpt>
      <trkpt lat="44.31252" lon="2.66041">
        <ele>698.5349121</ele>
        <time>2014-07-12T07:34:19Z</time>
      </trkpt>
      <trkpt lat="44.31264" lon="2.6605">
        <ele>700.4580078</ele>
        <time>2014-07-12T07:34:25Z</time>
      </trkpt>
      <trkpt lat="44.31269" lon="2.66053">
        <ele>700.9384766</ele>
        <time>2014-07-12T07:34:28Z</time>
      </trkpt>
      <trkpt lat="44.31275" lon="2.66052">
        <ele>701.4191895</ele>
        <time>2014-07-12T07:34:31Z</time>
      </trkpt>
      <trkpt lat="44.31286" lon="2.66056">
        <ele>702.3803711</ele>
        <time>2014-07-12T07:34:37Z</time>
      </trkpt>
      <trkpt lat="44.31292" lon="2.66063">
        <ele>702.861084</ele>
        <time>2014-07-12T07:34:41Z</time>
      </trkpt>
      <trkpt lat="44.31293" lon="2.66065">
        <ele>703.3417969</ele>
        <time>2014-07-12T07:34:42Z</time>
      </trkpt>
      <trkpt lat="44.31298" lon="2.66079">
        <ele>702.3803711</ele>
        <time>2014-07-12T07:34:48Z</time>
      </trkpt>
      <trkpt lat="44.31303" lon="2.66094">
        <ele>701.4191895</ele>
        <time>2014-07-12T07:34:54Z</time>
      </trkpt>
      <trkpt lat="44.31308" lon="2.66107">
        <ele>700.4580078</ele>
        <time>2014-07-12T07:34:59Z</time>
      </trkpt>
      <trkpt lat="44.31312" lon="2.66123">
        <ele>698.5349121</ele>
        <time>2014-07-12T07:35:05Z</time>
      </trkpt>
      <trkpt lat="44.31316" lon="2.66137">
        <ele>697.5737305</ele>
        <time>2014-07-12T07:35:10Z</time>
      </trkpt>
      <trkpt lat="44.31317" lon="2.66139">
        <ele>697.5737305</ele>
        <time>2014-07-12T07:35:11Z</time>
      </trkpt>
      <trkpt lat="44.3132" lon="2.66157">
        <ele>699.9770508</ele>
        <time>2014-07-12T07:35:17Z</time>
      </trkpt>
      <trkpt lat="44.31323" lon="2.66171">
        <ele>699.4963379</ele>
        <time>2014-07-12T07:35:22Z</time>
      </trkpt>
      <trkpt lat="44.31325" lon="2.66186">
        <ele>698.5349121</ele>
        <time>2014-07-12T07:35:26Z</time>
      </trkpt>
      <trkpt lat="44.31328" lon="2.66202">
        <ele>697.5737305</ele>
        <time>2014-07-12T07:35:32Z</time>
      </trkpt>
      <trkpt lat="44.31329" lon="2.66207">
        <ele>698.0544434</ele>
        <time>2014-07-12T07:35:34Z</time>
      </trkpt>
      <trkpt lat="44.31337" lon="2.66224">
        <ele>702.3803711</ele>
        <time>2014-07-12T07:35:41Z</time>
      </trkpt>
      <trkpt lat="44.31346" lon="2.66237">
        <ele>706.2255859</ele>
        <time>2014-07-12T07:35:47Z</time>
      </trkpt>
      <trkpt lat="44.31358" lon="2.6625">
        <ele>710.0708008</ele>
        <time>2014-07-12T07:35:53Z</time>
      </trkpt>
      <trkpt lat="44.31365" lon="2.66259">
        <ele>711.9936523</ele>
        <time>2014-07-12T07:35:57Z</time>
      </trkpt>
      <trkpt lat="44.31374" lon="2.6627">
        <ele>713.9160156</ele>
        <time>2014-07-12T07:36:02Z</time>
      </trkpt>
      <trkpt lat="44.3138" lon="2.66281">
        <ele>715.3581543</ele>
        <time>2014-07-12T07:36:08Z</time>
      </trkpt>
      <trkpt lat="44.31382" lon="2.66294">
        <ele>715.3581543</ele>
        <time>2014-07-12T07:36:16Z</time>
      </trkpt>
      <trkpt lat="44.31382" lon="2.66304">
        <ele>715.8388672</ele>
        <time>2014-07-12T07:36:22Z</time>
      </trkpt>
      <trkpt lat="44.31381" lon="2.66314">
        <ele>715.8388672</ele>
        <time>2014-07-12T07:36:29Z</time>
      </trkpt>
      <trkpt lat="44.31384" lon="2.66323">
        <ele>718.7229004</ele>
        <time>2014-07-12T07:36:33Z</time>
      </trkpt>
      <trkpt lat="44.3139" lon="2.66336">
        <ele>722.0874023</ele>
        <time>2014-07-12T07:36:41Z</time>
      </trkpt>
      <trkpt lat="44.31394" lon="2.66346">
        <ele>724.0100098</ele>
        <time>2014-07-12T07:36:48Z</time>
      </trkpt>
      <trkpt lat="44.31399" lon="2.6635">
        <ele>726.894043</ele>
        <time>2014-07-12T07:36:51Z</time>
      </trkpt>
      <trkpt lat="44.3141" lon="2.66359">
        <ele>730.7392578</ele>
        <time>2014-07-12T07:37:00Z</time>
      </trkpt>
      <trkpt lat="44.31411" lon="2.6636">
        <ele>730.7392578</ele>
        <time>2014-07-12T07:37:01Z</time>
      </trkpt>
      <trkpt lat="44.31419" lon="2.66367">
        <ele>733.623291</ele>
        <time>2014-07-12T07:37:07Z</time>
      </trkpt>
      <trkpt lat="44.31425" lon="2.66371">
        <ele>734.5847168</ele>
        <time>2014-07-12T07:37:12Z</time>
      </trkpt>
      <trkpt lat="44.31428" lon="2.66372">
        <ele>734.5847168</ele>
        <time>2014-07-12T07:37:14Z</time>
      </trkpt>
      <trkpt lat="44.31435" lon="2.66373">
        <ele>734.5847168</ele>
        <time>2014-07-12T07:37:20Z</time>
      </trkpt>
      <trkpt lat="44.31443" lon="2.66372">
        <ele>736.0266113</ele>
        <time>2014-07-12T07:37:25Z</time>
      </trkpt>
      <trkpt lat="44.31448" lon="2.66372">
        <ele>736.987793</ele>
        <time>2014-07-12T07:37:29Z</time>
      </trkpt>
      <trkpt lat="44.31458" lon="2.66377">
        <ele>738.9106445</ele>
        <time>2014-07-12T07:37:38Z</time>
      </trkpt>
      <trkpt lat="44.31469" lon="2.66383">
        <ele>742.7558594</ele>
        <time>2014-07-12T07:37:47Z</time>
      </trkpt>
      <trkpt lat="44.31471" lon="2.66385">
        <ele>742.7558594</ele>
        <time>2014-07-12T07:37:49Z</time>
      </trkpt>
      <trkpt lat="44.31479" lon="2.6639">
        <ele>745.1589355</ele>
        <time>2014-07-12T07:37:55Z</time>
      </trkpt>
      <trkpt lat="44.31481" lon="2.66393">
        <ele>745.1589355</ele>
        <time>2014-07-12T07:37:57Z</time>
      </trkpt>
      <trkpt lat="44.31489" lon="2.664">
        <ele>746.1203613</ele>
        <time>2014-07-12T07:38:03Z</time>
      </trkpt>
      <trkpt lat="44.31494" lon="2.66407">
        <ele>746.1203613</ele>
        <time>2014-07-12T07:38:08Z</time>
      </trkpt>
      <trkpt lat="44.315" lon="2.66414">
        <ele>746.1203613</ele>
        <time>2014-07-12T07:38:14Z</time>
      </trkpt>
      <trkpt lat="44.31505" lon="2.66421">
        <ele>747.5622559</ele>
        <time>2014-07-12T07:38:20Z</time>
      </trkpt>
      <trkpt lat="44.31512" lon="2.66427">
        <ele>748.0432129</ele>
        <time>2014-07-12T07:38:26Z</time>
      </trkpt>
      <trkpt lat="44.31513" lon="2.66429">
        <ele>748.5236816</ele>
        <time>2014-07-12T07:38:28Z</time>
      </trkpt>
      <trkpt lat="44.31517" lon="2.66435">
        <ele>748.5236816</ele>
        <time>2014-07-12T07:38:34Z</time>
      </trkpt>
      <trkpt lat="44.31523" lon="2.6644">
        <ele>750.4465332</ele>
        <time>2014-07-12T07:38:39Z</time>
      </trkpt>
      <trkpt lat="44.31525" lon="2.66443">
        <ele>750.927002</ele>
        <time>2014-07-12T07:38:41Z</time>
      </trkpt>
      <trkpt lat="44.31533" lon="2.66449">
        <ele>754.291748</ele>
        <time>2014-07-12T07:38:46Z</time>
      </trkpt>
      <trkpt lat="44.31537" lon="2.66458">
        <ele>756.2141113</ele>
        <time>2014-07-12T07:38:51Z</time>
      </trkpt>
      <trkpt lat="44.31536" lon="2.66471">
        <ele>756.2141113</ele>
        <time>2014-07-12T07:38:55Z</time>
      </trkpt>
      <trkpt lat="44.31532" lon="2.66488">
        <ele>755.7336426</ele>
        <time>2014-07-12T07:39:00Z</time>
      </trkpt>
      <trkpt lat="44.31526" lon="2.66503">
        <ele>756.2141113</ele>
        <time>2014-07-12T07:39:05Z</time>
      </trkpt>
      <trkpt lat="44.31519" lon="2.66513">
        <ele>757.65625</ele>
        <time>2014-07-12T07:39:09Z</time>
      </trkpt>
      <trkpt lat="44.3151" lon="2.6652">
        <ele>758.6174316</ele>
        <time>2014-07-12T07:39:13Z</time>
      </trkpt>
      <trkpt lat="44.31499" lon="2.66524">
        <ele>759.0981445</ele>
        <time>2014-07-12T07:39:18Z</time>
      </trkpt>
      <trkpt lat="44.31489" lon="2.66526">
        <ele>759.0981445</ele>
        <time>2014-07-12T07:39:22Z</time>
      </trkpt>
      <trkpt lat="44.31482" lon="2.66529">
        <ele>759.5788574</ele>
        <time>2014-07-12T07:39:25Z</time>
      </trkpt>
      <trkpt lat="44.31471" lon="2.66536">
        <ele>760.5400391</ele>
        <time>2014-07-12T07:39:30Z</time>
      </trkpt>
      <trkpt lat="44.31464" lon="2.66551">
        <ele>760.5400391</ele>
        <time>2014-07-12T07:39:36Z</time>
      </trkpt>
      <trkpt lat="44.3146" lon="2.66567">
        <ele>761.9821777</ele>
        <time>2014-07-12T07:39:41Z</time>
      </trkpt>
      <trkpt lat="44.31463" lon="2.66587">
        <ele>762.4626465</ele>
        <time>2014-07-12T07:39:47Z</time>
      </trkpt>
      <trkpt lat="44.31473" lon="2.66604">
        <ele>763.4240723</ele>
        <time>2014-07-12T07:39:53Z</time>
      </trkpt>
      <trkpt lat="44.31486" lon="2.66614">
        <ele>764.385498</ele>
        <time>2014-07-12T07:39:59Z</time>
      </trkpt>
      <trkpt lat="44.31498" lon="2.66623">
        <ele>764.385498</ele>
        <time>2014-07-12T07:40:04Z</time>
      </trkpt>
      <trkpt lat="44.31508" lon="2.66634">
        <ele>764.385498</ele>
        <time>2014-07-12T07:40:09Z</time>
      </trkpt>
      <trkpt lat="44.31519" lon="2.6665">
        <ele>763.4240723</ele>
        <time>2014-07-12T07:40:15Z</time>
      </trkpt>
      <trkpt lat="44.31528" lon="2.66666">
        <ele>761.9821777</ele>
        <time>2014-07-12T07:40:20Z</time>
      </trkpt>
      <trkpt lat="44.31537" lon="2.66683">
        <ele>760.0593262</ele>
        <time>2014-07-12T07:40:25Z</time>
      </trkpt>
      <trkpt lat="44.31542" lon="2.66698">
        <ele>758.6174316</ele>
        <time>2014-07-12T07:40:29Z</time>
      </trkpt>
      <trkpt lat="44.31547" lon="2.66712">
        <ele>758.1369629</ele>
        <time>2014-07-12T07:40:33Z</time>
      </trkpt>
      <trkpt lat="44.31549" lon="2.66716">
        <ele>757.65625</ele>
        <time>2014-07-12T07:40:34Z</time>
      </trkpt>
      <trkpt lat="44.31553" lon="2.66732">
        <ele>756.6948242</ele>
        <time>2014-07-12T07:40:39Z</time>
      </trkpt>
      <trkpt lat="44.31555" lon="2.66744">
        <ele>755.7336426</ele>
        <time>2014-07-12T07:40:45Z</time>
      </trkpt>
      <trkpt lat="44.31555" lon="2.66746">
        <ele>755.7336426</ele>
        <time>2014-07-12T07:40:47Z</time>
      </trkpt>
      <trkpt lat="44.31555" lon="2.66754">
        <ele>755.7336426</ele>
        <time>2014-07-12T07:40:52Z</time>
      </trkpt>
      <trkpt lat="44.31552" lon="2.66768">
        <ele>756.2141113</ele>
        <time>2014-07-12T07:41:01Z</time>
      </trkpt>
      <trkpt lat="44.31551" lon="2.66771">
        <ele>756.2141113</ele>
        <time>2014-07-12T07:41:02Z</time>
      </trkpt>
      <trkpt lat="44.31543" lon="2.66791">
        <ele>754.7722168</ele>
        <time>2014-07-12T07:41:08Z</time>
      </trkpt>
      <trkpt lat="44.31532" lon="2.66808">
        <ele>754.7722168</ele>
        <time>2014-07-12T07:41:14Z</time>
      </trkpt>
      <trkpt lat="44.31521" lon="2.66821">
        <ele>754.7722168</ele>
        <time>2014-07-12T07:41:19Z</time>
      </trkpt>
      <trkpt lat="44.31507" lon="2.66834">
        <ele>754.7722168</ele>
        <time>2014-07-12T07:41:25Z</time>
      </trkpt>
      <trkpt lat="44.31498" lon="2.66843">
        <ele>755.2529297</ele>
        <time>2014-07-12T07:41:29Z</time>
      </trkpt>
      <trkpt lat="44.31487" lon="2.66852">
        <ele>755.7336426</ele>
        <time>2014-07-12T07:41:34Z</time>
      </trkpt>
      <trkpt lat="44.31474" lon="2.66863">
        <ele>757.1755371</ele>
        <time>2014-07-12T07:41:40Z</time>
      </trkpt>
      <trkpt lat="44.31462" lon="2.66871">
        <ele>756.6948242</ele>
        <time>2014-07-12T07:41:45Z</time>
      </trkpt>
      <trkpt lat="44.3145" lon="2.66884">
        <ele>758.1369629</ele>
        <time>2014-07-12T07:41:51Z</time>
      </trkpt>
      <trkpt lat="44.31439" lon="2.669">
        <ele>760.0593262</ele>
        <time>2014-07-12T07:41:57Z</time>
      </trkpt>
      <trkpt lat="44.31427" lon="2.66919">
        <ele>761.9821777</ele>
        <time>2014-07-12T07:42:04Z</time>
      </trkpt>
      <trkpt lat="44.31416" lon="2.66933">
        <ele>763.904541</ele>
        <time>2014-07-12T07:42:10Z</time>
      </trkpt>
      <trkpt lat="44.31404" lon="2.66947">
        <ele>766.3081055</ele>
        <time>2014-07-12T07:42:16Z</time>
      </trkpt>
      <trkpt lat="44.31395" lon="2.66959">
        <ele>766.3081055</ele>
        <time>2014-07-12T07:42:21Z</time>
      </trkpt>
      <trkpt lat="44.31381" lon="2.66977">
        <ele>766.3081055</ele>
        <time>2014-07-12T07:42:28Z</time>
      </trkpt>
      <trkpt lat="44.31372" lon="2.6699">
        <ele>767.75</ele>
        <time>2014-07-12T07:42:33Z</time>
      </trkpt>
      <trkpt lat="44.31363" lon="2.67001">
        <ele>767.2695313</ele>
        <time>2014-07-12T07:42:38Z</time>
      </trkpt>
      <trkpt lat="44.31352" lon="2.67017">
        <ele>767.75</ele>
        <time>2014-07-12T07:42:45Z</time>
      </trkpt>
      <trkpt lat="44.31344" lon="2.67029">
        <ele>769.1921387</ele>
        <time>2014-07-12T07:42:50Z</time>
      </trkpt>
      <trkpt lat="44.31335" lon="2.67042">
        <ele>769.6728516</ele>
        <time>2014-07-12T07:42:55Z</time>
      </trkpt>
      <trkpt lat="44.31324" lon="2.67054">
        <ele>769.6728516</ele>
        <time>2014-07-12T07:43:00Z</time>
      </trkpt>
      <trkpt lat="44.31314" lon="2.67066">
        <ele>771.1147461</ele>
        <time>2014-07-12T07:43:05Z</time>
      </trkpt>
      <trkpt lat="44.31305" lon="2.67077">
        <ele>770.1533203</ele>
        <time>2014-07-12T07:43:09Z</time>
      </trkpt>
      <trkpt lat="44.31294" lon="2.67095">
        <ele>768.2307129</ele>
        <time>2014-07-12T07:43:15Z</time>
      </trkpt>
      <trkpt lat="44.31282" lon="2.67118">
        <ele>763.904541</ele>
        <time>2014-07-12T07:43:22Z</time>
      </trkpt>
      <trkpt lat="44.31273" lon="2.67134">
        <ele>761.020752</ele>
        <time>2014-07-12T07:43:27Z</time>
      </trkpt>
      <trkpt lat="44.31267" lon="2.67147">
        <ele>757.65625</ele>
        <time>2014-07-12T07:43:31Z</time>
      </trkpt>
      <trkpt lat="44.31257" lon="2.67169">
        <ele>754.7722168</ele>
        <time>2014-07-12T07:43:37Z</time>
      </trkpt>
      <trkpt lat="44.31248" lon="2.67191">
        <ele>751.8884277</ele>
        <time>2014-07-12T07:43:43Z</time>
      </trkpt>
      <trkpt lat="44.31239" lon="2.67209">
        <ele>749.0043945</ele>
        <time>2014-07-12T07:43:49Z</time>
      </trkpt>
      <trkpt lat="44.31231" lon="2.6722">
        <ele>747.081543</ele>
        <time>2014-07-12T07:43:53Z</time>
      </trkpt>
      <trkpt lat="44.31223" lon="2.67232">
        <ele>746.6010742</ele>
        <time>2014-07-12T07:43:57Z</time>
      </trkpt>
      <trkpt lat="44.31211" lon="2.67245">
        <ele>743.717041</ele>
        <time>2014-07-12T07:44:02Z</time>
      </trkpt>
      <trkpt lat="44.312" lon="2.67257">
        <ele>741.7944336</ele>
        <time>2014-07-12T07:44:07Z</time>
      </trkpt>
      <trkpt lat="44.31185" lon="2.67271">
        <ele>741.3137207</ele>
        <time>2014-07-12T07:44:13Z</time>
      </trkpt>
      <trkpt lat="44.31171" lon="2.67278">
        <ele>739.3911133</ele>
        <time>2014-07-12T07:44:18Z</time>
      </trkpt>
      <trkpt lat="44.3116" lon="2.67285">
        <ele>738.9106445</ele>
        <time>2014-07-12T07:44:22Z</time>
      </trkpt>
      <trkpt lat="44.31152" lon="2.67291">
        <ele>737.9492188</ele>
        <time>2014-07-12T07:44:25Z</time>
      </trkpt>
      <trkpt lat="44.3115" lon="2.67308">
        <ele>736.0266113</ele>
        <time>2014-07-12T07:44:30Z</time>
      </trkpt>
      <trkpt lat="44.31151" lon="2.67312">
        <ele>736.0266113</ele>
        <time>2014-07-12T07:44:31Z</time>
      </trkpt>
      <trkpt lat="44.31161" lon="2.67332">
        <ele>735.5458984</ele>
        <time>2014-07-12T07:44:37Z</time>
      </trkpt>
      <trkpt lat="44.31173" lon="2.67349">
        <ele>736.0266113</ele>
        <time>2014-07-12T07:44:43Z</time>
      </trkpt>
      <trkpt lat="44.31183" lon="2.67362">
        <ele>738.4299316</ele>
        <time>2014-07-12T07:44:48Z</time>
      </trkpt>
      <trkpt lat="44.3119" lon="2.67373">
        <ele>740.8330078</ele>
        <time>2014-07-12T07:44:52Z</time>
      </trkpt>
      <trkpt lat="44.31197" lon="2.67383">
        <ele>743.717041</ele>
        <time>2014-07-12T07:44:56Z</time>
      </trkpt>
      <trkpt lat="44.31205" lon="2.67397">
        <ele>746.6010742</ele>
        <time>2014-07-12T07:45:01Z</time>
      </trkpt>
      <trkpt lat="44.3121" lon="2.67411">
        <ele>747.5622559</ele>
        <time>2014-07-12T07:45:05Z</time>
      </trkpt>
      <trkpt lat="44.31214" lon="2.67426">
        <ele>748.5236816</ele>
        <time>2014-07-12T07:45:10Z</time>
      </trkpt>
      <trkpt lat="44.31217" lon="2.67442">
        <ele>747.081543</ele>
        <time>2014-07-12T07:45:15Z</time>
      </trkpt>
      <trkpt lat="44.3122" lon="2.67463">
        <ele>747.5622559</ele>
        <time>2014-07-12T07:45:21Z</time>
      </trkpt>
      <trkpt lat="44.31224" lon="2.67482">
        <ele>749.0043945</ele>
        <time>2014-07-12T07:45:26Z</time>
      </trkpt>
      <trkpt lat="44.31226" lon="2.67494">
        <ele>749.4851074</ele>
        <time>2014-07-12T07:45:30Z</time>
      </trkpt>
      <trkpt lat="44.31228" lon="2.67514">
        <ele>750.4465332</ele>
        <time>2014-07-12T07:45:36Z</time>
      </trkpt>
      <trkpt lat="44.31232" lon="2.67532">
        <ele>753.8110352</ele>
        <time>2014-07-12T07:45:41Z</time>
      </trkpt>
      <trkpt lat="44.31234" lon="2.67545">
        <ele>754.7722168</ele>
        <time>2014-07-12T07:45:45Z</time>
      </trkpt>
      <trkpt lat="44.31236" lon="2.67558">
        <ele>754.7722168</ele>
        <time>2014-07-12T07:45:49Z</time>
      </trkpt>
      <trkpt lat="44.31236" lon="2.67566">
        <ele>753.3303223</ele>
        <time>2014-07-12T07:45:52Z</time>
      </trkpt>
      <trkpt lat="44.31238" lon="2.67584">
        <ele>754.291748</ele>
        <time>2014-07-12T07:45:58Z</time>
      </trkpt>
      <trkpt lat="44.31238" lon="2.67588">
        <ele>754.291748</ele>
        <time>2014-07-12T07:45:59Z</time>
      </trkpt>
      <trkpt lat="44.31241" lon="2.67606">
        <ele>755.2529297</ele>
        <time>2014-07-12T07:46:04Z</time>
      </trkpt>
      <trkpt lat="44.31243" lon="2.67625">
        <ele>756.6948242</ele>
        <time>2014-07-12T07:46:09Z</time>
      </trkpt>
      <trkpt lat="44.31244" lon="2.67646">
        <ele>761.5014648</ele>
        <time>2014-07-12T07:46:15Z</time>
      </trkpt>
      <trkpt lat="44.31242" lon="2.6766">
        <ele>764.385498</ele>
        <time>2014-07-12T07:46:20Z</time>
      </trkpt>
      <trkpt lat="44.31239" lon="2.67678">
        <ele>764.8662109</ele>
        <time>2014-07-12T07:46:27Z</time>
      </trkpt>
      <trkpt lat="44.31239" lon="2.67687">
        <ele>764.385498</ele>
        <time>2014-07-12T07:46:30Z</time>
      </trkpt>
      <trkpt lat="44.31237" lon="2.67707">
        <ele>764.385498</ele>
        <time>2014-07-12T07:46:37Z</time>
      </trkpt>
      <trkpt lat="44.31234" lon="2.6772">
        <ele>764.385498</ele>
        <time>2014-07-12T07:46:41Z</time>
      </trkpt>
      <trkpt lat="44.31228" lon="2.67743">
        <ele>765.3469238</ele>
        <time>2014-07-12T07:46:48Z</time>
      </trkpt>
      <trkpt lat="44.31225" lon="2.67761">
        <ele>768.2307129</ele>
        <time>2014-07-12T07:46:53Z</time>
      </trkpt>
      <trkpt lat="44.31223" lon="2.67776">
        <ele>770.1533203</ele>
        <time>2014-07-12T07:46:58Z</time>
      </trkpt>
      <trkpt lat="44.3122" lon="2.67795">
        <ele>773.9985352</ele>
        <time>2014-07-12T07:47:04Z</time>
      </trkpt>
      <trkpt lat="44.31218" lon="2.67811">
        <ele>777.3632813</ele>
        <time>2014-07-12T07:47:10Z</time>
      </trkpt>
      <trkpt lat="44.31217" lon="2.67825">
        <ele>779.7663574</ele>
        <time>2014-07-12T07:47:17Z</time>
      </trkpt>
      <trkpt lat="44.31216" lon="2.67834">
        <ele>779.7663574</ele>
        <time>2014-07-12T07:47:22Z</time>
      </trkpt>
      <trkpt lat="44.31214" lon="2.67843">
        <ele>778.8051758</ele>
        <time>2014-07-12T07:47:27Z</time>
      </trkpt>
      <trkpt lat="44.31213" lon="2.67852">
        <ele>778.3244629</ele>
        <time>2014-07-12T07:47:31Z</time>
      </trkpt>
      <trkpt lat="44.3121" lon="2.67866">
        <ele>779.7663574</ele>
        <time>2014-07-12T07:47:38Z</time>
      </trkpt>
      <trkpt lat="44.31204" lon="2.67875">
        <ele>781.689209</ele>
        <time>2014-07-12T07:47:44Z</time>
      </trkpt>
      <trkpt lat="44.31195" lon="2.67885">
        <ele>782.6506348</ele>
        <time>2014-07-12T07:47:51Z</time>
      </trkpt>
      <trkpt lat="44.31188" lon="2.67889">
        <ele>784.0925293</ele>
        <time>2014-07-12T07:47:55Z</time>
      </trkpt>
      <trkpt lat="44.31186" lon="2.6789">
        <ele>785.0539551</ele>
        <time>2014-07-12T07:47:57Z</time>
      </trkpt>
      <trkpt lat="44.31192" lon="2.67899">
        <ele>783.6118164</ele>
        <time>2014-07-12T07:48:02Z</time>
      </trkpt>
      <trkpt lat="44.31195" lon="2.67909">
        <ele>782.6506348</ele>
        <time>2014-07-12T07:48:06Z</time>
      </trkpt>
      <trkpt lat="44.31207" lon="2.67917">
        <ele>786.0151367</ele>
        <time>2014-07-12T07:48:12Z</time>
      </trkpt>
      <trkpt lat="44.31218" lon="2.67916">
        <ele>789.8603516</ele>
        <time>2014-07-12T07:48:17Z</time>
      </trkpt>
      <trkpt lat="44.31231" lon="2.67925">
        <ele>791.782959</ele>
        <time>2014-07-12T07:48:25Z</time>
      </trkpt>
      <trkpt lat="44.31232" lon="2.67927">
        <ele>791.3022461</ele>
        <time>2014-07-12T07:48:29Z</time>
      </trkpt>
      <trkpt lat="44.31232" lon="2.67926">
        <ele>792.2636719</ele>
        <time>2014-07-12T07:48:36Z</time>
      </trkpt>
      <trkpt lat="44.3122" lon="2.67921">
        <ele>788.8991699</ele>
        <time>2014-07-12T07:48:41Z</time>
      </trkpt>
      <trkpt lat="44.31211" lon="2.6792">
        <ele>787.9377441</ele>
        <time>2014-07-12T07:48:44Z</time>
      </trkpt>
      <trkpt lat="44.31199" lon="2.67919">
        <ele>786.9763184</ele>
        <time>2014-07-12T07:48:48Z</time>
      </trkpt>
      <trkpt lat="44.31189" lon="2.67909">
        <ele>785.0539551</ele>
        <time>2014-07-12T07:48:52Z</time>
      </trkpt>
      <trkpt lat="44.31184" lon="2.67894">
        <ele>783.6118164</ele>
        <time>2014-07-12T07:48:56Z</time>
      </trkpt>
      <trkpt lat="44.31177" lon="2.67893">
        <ele>782.6506348</ele>
        <time>2014-07-12T07:49:00Z</time>
      </trkpt>
      <trkpt lat="44.31165" lon="2.67905">
        <ele>781.689209</ele>
        <time>2014-07-12T07:49:05Z</time>
      </trkpt>
      <trkpt lat="44.31161" lon="2.67917">
        <ele>781.689209</ele>
        <time>2014-07-12T07:49:09Z</time>
      </trkpt>
      <trkpt lat="44.31158" lon="2.6794">
        <ele>782.6506348</ele>
        <time>2014-07-12T07:49:15Z</time>
      </trkpt>
      <trkpt lat="44.31156" lon="2.67957">
        <ele>783.1311035</ele>
        <time>2014-07-12T07:49:19Z</time>
      </trkpt>
      <trkpt lat="44.31155" lon="2.67975">
        <ele>784.0925293</ele>
        <time>2014-07-12T07:49:23Z</time>
      </trkpt>
      <trkpt lat="44.3115" lon="2.67989">
        <ele>783.1311035</ele>
        <time>2014-07-12T07:49:28Z</time>
      </trkpt>
      <trkpt lat="44.31145" lon="2.6801">
        <ele>782.1699219</ele>
        <time>2014-07-12T07:49:33Z</time>
      </trkpt>
      <trkpt lat="44.31141" lon="2.68027">
        <ele>781.689209</ele>
        <time>2014-07-12T07:49:38Z</time>
      </trkpt>
      <trkpt lat="44.31138" lon="2.68039">
        <ele>782.1699219</ele>
        <time>2014-07-12T07:49:42Z</time>
      </trkpt>
      <trkpt lat="44.31134" lon="2.68049">
        <ele>784.0925293</ele>
        <time>2014-07-12T07:49:46Z</time>
      </trkpt>
      <trkpt lat="44.31132" lon="2.68052">
        <ele>785.0539551</ele>
        <time>2014-07-12T07:49:52Z</time>
      </trkpt>
      <trkpt lat="44.31128" lon="2.68065">
        <ele>786.9763184</ele>
        <time>2014-07-12T07:49:57Z</time>
      </trkpt>
      <trkpt lat="44.31124" lon="2.68086">
        <ele>787.4570313</ele>
        <time>2014-07-12T07:50:03Z</time>
      </trkpt>
      <trkpt lat="44.31123" lon="2.68102">
        <ele>787.4570313</ele>
        <time>2014-07-12T07:50:08Z</time>
      </trkpt>
      <trkpt lat="44.31124" lon="2.68114">
        <ele>786.9763184</ele>
        <time>2014-07-12T07:50:12Z</time>
      </trkpt>
      <trkpt lat="44.31125" lon="2.68128">
        <ele>787.4570313</ele>
        <time>2014-07-12T07:50:16Z</time>
      </trkpt>
      <trkpt lat="44.31126" lon="2.68141">
        <ele>788.418457</ele>
        <time>2014-07-12T07:50:20Z</time>
      </trkpt>
      <trkpt lat="44.31129" lon="2.68155">
        <ele>788.8991699</ele>
        <time>2014-07-12T07:50:24Z</time>
      </trkpt>
      <trkpt lat="44.31131" lon="2.68172">
        <ele>790.3410645</ele>
        <time>2014-07-12T07:50:29Z</time>
      </trkpt>
      <trkpt lat="44.31133" lon="2.68186">
        <ele>790.8215332</ele>
        <time>2014-07-12T07:50:33Z</time>
      </trkpt>
      <trkpt lat="44.31136" lon="2.68207">
        <ele>793.7055664</ele>
        <time>2014-07-12T07:50:39Z</time>
      </trkpt>
      <trkpt lat="44.31137" lon="2.68229">
        <ele>793.2248535</ele>
        <time>2014-07-12T07:50:45Z</time>
      </trkpt>
      <trkpt lat="44.31136" lon="2.68246">
        <ele>792.7443848</ele>
        <time>2014-07-12T07:50:50Z</time>
      </trkpt>
      <trkpt lat="44.31134" lon="2.68263">
        <ele>792.7443848</ele>
        <time>2014-07-12T07:50:55Z</time>
      </trkpt>
      <trkpt lat="44.3113" lon="2.6828">
        <ele>795.1474609</ele>
        <time>2014-07-12T07:51:00Z</time>
      </trkpt>
      <trkpt lat="44.31124" lon="2.68297">
        <ele>796.5898438</ele>
        <time>2014-07-12T07:51:05Z</time>
      </trkpt>
      <trkpt lat="44.31118" lon="2.68314">
        <ele>796.1091309</ele>
        <time>2014-07-12T07:51:10Z</time>
      </trkpt>
      <trkpt lat="44.31111" lon="2.6833">
        <ele>796.5898438</ele>
        <time>2014-07-12T07:51:15Z</time>
      </trkpt>
      <trkpt lat="44.31106" lon="2.68349">
        <ele>797.5510254</ele>
        <time>2014-07-12T07:51:21Z</time>
      </trkpt>
      <trkpt lat="44.31105" lon="2.68366">
        <ele>798.512207</ele>
        <time>2014-07-12T07:51:25Z</time>
      </trkpt>
      <trkpt lat="44.31107" lon="2.68384">
        <ele>799.4736328</ele>
        <time>2014-07-12T07:51:30Z</time>
      </trkpt>
      <trkpt lat="44.31111" lon="2.68401">
        <ele>801.3962402</ele>
        <time>2014-07-12T07:51:35Z</time>
      </trkpt>
      <trkpt lat="44.31119" lon="2.68416">
        <ele>801.3962402</ele>
        <time>2014-07-12T07:51:41Z</time>
      </trkpt>
      <trkpt lat="44.31126" lon="2.68426">
        <ele>799.9543457</ele>
        <time>2014-07-12T07:51:45Z</time>
      </trkpt>
      <trkpt lat="44.31133" lon="2.68436">
        <ele>800.4350586</ele>
        <time>2014-07-12T07:51:49Z</time>
      </trkpt>
      <trkpt lat="44.3114" lon="2.68447">
        <ele>800.9155273</ele>
        <time>2014-07-12T07:51:54Z</time>
      </trkpt>
      <trkpt lat="44.31149" lon="2.68455">
        <ele>802.8381348</ele>
        <time>2014-07-12T07:51:58Z</time>
      </trkpt>
      <trkpt lat="44.31156" lon="2.68467">
        <ele>803.3188477</ele>
        <time>2014-07-12T07:52:03Z</time>
      </trkpt>
      <trkpt lat="44.31165" lon="2.68475">
        <ele>804.2802734</ele>
        <time>2014-07-12T07:52:08Z</time>
      </trkpt>
      <trkpt lat="44.31175" lon="2.68486">
        <ele>806.6833496</ele>
        <time>2014-07-12T07:52:13Z</time>
      </trkpt>
      <trkpt lat="44.31181" lon="2.68496">
        <ele>808.605957</ele>
        <time>2014-07-12T07:52:17Z</time>
      </trkpt>
      <trkpt lat="44.31192" lon="2.68508">
        <ele>811.0092773</ele>
        <time>2014-07-12T07:52:23Z</time>
      </trkpt>
      <trkpt lat="44.31198" lon="2.68518">
        <ele>811.9707031</ele>
        <time>2014-07-12T07:52:27Z</time>
      </trkpt>
      <trkpt lat="44.31205" lon="2.68527">
        <ele>812.451416</ele>
        <time>2014-07-12T07:52:31Z</time>
      </trkpt>
      <trkpt lat="44.31211" lon="2.6854">
        <ele>811.9707031</ele>
        <time>2014-07-12T07:52:36Z</time>
      </trkpt>
      <trkpt lat="44.31217" lon="2.68562">
        <ele>809.0866699</ele>
        <time>2014-07-12T07:52:42Z</time>
      </trkpt>
      <trkpt lat="44.31221" lon="2.6858">
        <ele>807.1640625</ele>
        <time>2014-07-12T07:52:47Z</time>
      </trkpt>
      <trkpt lat="44.31225" lon="2.68603">
        <ele>806.6833496</ele>
        <time>2014-07-12T07:52:53Z</time>
      </trkpt>
      <trkpt lat="44.31228" lon="2.68618">
        <ele>806.2026367</ele>
        <time>2014-07-12T07:52:57Z</time>
      </trkpt>
      <trkpt lat="44.31234" lon="2.68641">
        <ele>807.1640625</ele>
        <time>2014-07-12T07:53:03Z</time>
      </trkpt>
      <trkpt lat="44.31237" lon="2.68658">
        <ele>807.1640625</ele>
        <time>2014-07-12T07:53:08Z</time>
      </trkpt>
      <trkpt lat="44.31243" lon="2.68685">
        <ele>805.722168</ele>
        <time>2014-07-12T07:53:15Z</time>
      </trkpt>
      <trkpt lat="44.31249" lon="2.68705">
        <ele>804.2802734</ele>
        <time>2014-07-12T07:53:20Z</time>
      </trkpt>
      <trkpt lat="44.31253" lon="2.68724">
        <ele>801.3962402</ele>
        <time>2014-07-12T07:53:25Z</time>
      </trkpt>
      <trkpt lat="44.31254" lon="2.68736">
        <ele>799.4736328</ele>
        <time>2014-07-12T07:53:28Z</time>
      </trkpt>
      <trkpt lat="44.31254" lon="2.68754">
        <ele>796.1091309</ele>
        <time>2014-07-12T07:53:33Z</time>
      </trkpt>
      <trkpt lat="44.31255" lon="2.68778">
        <ele>792.2636719</ele>
        <time>2014-07-12T07:53:39Z</time>
      </trkpt>
      <trkpt lat="44.31254" lon="2.68799">
        <ele>791.3022461</ele>
        <time>2014-07-12T07:53:44Z</time>
      </trkpt>
      <trkpt lat="44.31254" lon="2.68817">
        <ele>791.782959</ele>
        <time>2014-07-12T07:53:48Z</time>
      </trkpt>
      <trkpt lat="44.31247" lon="2.68838">
        <ele>793.7055664</ele>
        <time>2014-07-12T07:53:54Z</time>
      </trkpt>
      <trkpt lat="44.3124" lon="2.68855">
        <ele>794.666748</ele>
        <time>2014-07-12T07:53:59Z</time>
      </trkpt>
      <trkpt lat="44.31241" lon="2.68873">
        <ele>794.1862793</ele>
        <time>2014-07-12T07:54:04Z</time>
      </trkpt>
      <trkpt lat="44.31248" lon="2.68889">
        <ele>795.1474609</ele>
        <time>2014-07-12T07:54:09Z</time>
      </trkpt>
      <trkpt lat="44.31256" lon="2.68902">
        <ele>798.0317383</ele>
        <time>2014-07-12T07:54:13Z</time>
      </trkpt>
      <trkpt lat="44.3126" lon="2.68907">
        <ele>799.4736328</ele>
        <time>2014-07-12T07:54:15Z</time>
      </trkpt>
      <trkpt lat="44.31273" lon="2.68914">
        <ele>802.8381348</ele>
        <time>2014-07-12T07:54:22Z</time>
      </trkpt>
      <trkpt lat="44.31282" lon="2.68919">
        <ele>804.2802734</ele>
        <time>2014-07-12T07:54:27Z</time>
      </trkpt>
      <trkpt lat="44.31296" lon="2.68928">
        <ele>806.2026367</ele>
        <time>2014-07-12T07:54:33Z</time>
      </trkpt>
      <trkpt lat="44.31304" lon="2.68934">
        <ele>806.2026367</ele>
        <time>2014-07-12T07:54:37Z</time>
      </trkpt>
      <trkpt lat="44.31314" lon="2.68943">
        <ele>805.722168</ele>
        <time>2014-07-12T07:54:43Z</time>
      </trkpt>
      <trkpt lat="44.31323" lon="2.6895">
        <ele>806.6833496</ele>
        <time>2014-07-12T07:54:48Z</time>
      </trkpt>
      <trkpt lat="44.31338" lon="2.68961">
        <ele>808.1254883</ele>
        <time>2014-07-12T07:54:55Z</time>
      </trkpt>
      <trkpt lat="44.31348" lon="2.68973">
        <ele>808.605957</ele>
        <time>2014-07-12T07:55:01Z</time>
      </trkpt>
      <trkpt lat="44.31358" lon="2.68988">
        <ele>811.4899902</ele>
        <time>2014-07-12T07:55:08Z</time>
      </trkpt>
      <trkpt lat="44.31367" lon="2.69005">
        <ele>813.4128418</ele>
        <time>2014-07-12T07:55:15Z</time>
      </trkpt>
      <trkpt lat="44.31374" lon="2.69016">
        <ele>813.8933105</ele>
        <time>2014-07-12T07:55:20Z</time>
      </trkpt>
      <trkpt lat="44.31382" lon="2.6903">
        <ele>814.8547363</ele>
        <time>2014-07-12T07:55:26Z</time>
      </trkpt>
      <trkpt lat="44.31394" lon="2.69051">
        <ele>815.3354492</ele>
        <time>2014-07-12T07:55:35Z</time>
      </trkpt>
      <trkpt lat="44.31401" lon="2.69065">
        <ele>815.3354492</ele>
        <time>2014-07-12T07:55:41Z</time>
      </trkpt>
      <trkpt lat="44.3141" lon="2.69078">
        <ele>816.2966309</ele>
        <time>2014-07-12T07:55:47Z</time>
      </trkpt>
      <trkpt lat="44.31417" lon="2.6909">
        <ele>816.7773438</ele>
        <time>2014-07-12T07:55:52Z</time>
      </trkpt>
      <trkpt lat="44.31423" lon="2.691">
        <ele>818.2192383</ele>
        <time>2014-07-12T07:55:57Z</time>
      </trkpt>
      <trkpt lat="44.31429" lon="2.69111">
        <ele>817.2580566</ele>
        <time>2014-07-12T07:56:02Z</time>
      </trkpt>
      <trkpt lat="44.31437" lon="2.69125">
        <ele>819.1806641</ele>
        <time>2014-07-12T07:56:08Z</time>
      </trkpt>
      <trkpt lat="44.31447" lon="2.69138">
        <ele>822.0644531</ele>
        <time>2014-07-12T07:56:14Z</time>
      </trkpt>
      <trkpt lat="44.31455" lon="2.69153">
        <ele>825.4289551</ele>
        <time>2014-07-12T07:56:20Z</time>
      </trkpt>
      <trkpt lat="44.31459" lon="2.69158">
        <ele>827.3518066</ele>
        <time>2014-07-12T07:56:22Z</time>
      </trkpt>
      <trkpt lat="44.31472" lon="2.69169">
        <ele>828.7939453</ele>
        <time>2014-07-12T07:56:29Z</time>
      </trkpt>
      <trkpt lat="44.31484" lon="2.69174">
        <ele>829.755127</ele>
        <time>2014-07-12T07:56:34Z</time>
      </trkpt>
      <trkpt lat="44.31495" lon="2.6918">
        <ele>828.7939453</ele>
        <time>2014-07-12T07:56:39Z</time>
      </trkpt>
      <trkpt lat="44.31508" lon="2.69187">
        <ele>828.3132324</ele>
        <time>2014-07-12T07:56:44Z</time>
      </trkpt>
      <trkpt lat="44.31516" lon="2.692">
        <ele>824.9484863</ele>
        <time>2014-07-12T07:56:49Z</time>
      </trkpt>
      <trkpt lat="44.3152" lon="2.69218">
        <ele>821.1032715</ele>
        <time>2014-07-12T07:56:54Z</time>
      </trkpt>
      <trkpt lat="44.31521" lon="2.69224">
        <ele>819.661377</ele>
        <time>2014-07-12T07:56:56Z</time>
      </trkpt>
      <trkpt lat="44.31522" lon="2.69255">
        <ele>817.2580566</ele>
        <time>2014-07-12T07:57:04Z</time>
      </trkpt>
      <trkpt lat="44.31523" lon="2.69278">
        <ele>818.2192383</ele>
        <time>2014-07-12T07:57:11Z</time>
      </trkpt>
      <trkpt lat="44.31524" lon="2.693">
        <ele>821.5837402</ele>
        <time>2014-07-12T07:57:18Z</time>
      </trkpt>
      <trkpt lat="44.31524" lon="2.69316">
        <ele>824.9484863</ele>
        <time>2014-07-12T07:57:23Z</time>
      </trkpt>
      <trkpt lat="44.31522" lon="2.69333">
        <ele>825.909668</ele>
        <time>2014-07-12T07:57:29Z</time>
      </trkpt>
      <trkpt lat="44.31522" lon="2.69343">
        <ele>826.3903809</ele>
        <time>2014-07-12T07:57:34Z</time>
      </trkpt>
      <trkpt lat="44.31523" lon="2.69357">
        <ele>827.3518066</ele>
        <time>2014-07-12T07:57:42Z</time>
      </trkpt>
      <trkpt lat="44.31524" lon="2.6936">
        <ele>827.8322754</ele>
        <time>2014-07-12T07:57:44Z</time>
      </trkpt>
      <trkpt lat="44.31528" lon="2.69367">
        <ele>830.2358398</ele>
        <time>2014-07-12T07:57:50Z</time>
      </trkpt>
      <trkpt lat="44.31536" lon="2.69363">
        <ele>831.1972656</ele>
        <time>2014-07-12T07:57:54Z</time>
      </trkpt>
      <trkpt lat="44.3154" lon="2.69359">
        <ele>831.6777344</ele>
        <time>2014-07-12T07:57:56Z</time>
      </trkpt>
      <trkpt lat="44.31556" lon="2.69344">
        <ele>832.6391602</ele>
        <time>2014-07-12T07:58:02Z</time>
      </trkpt>
      <trkpt lat="44.31567" lon="2.69335">
        <ele>832.1584473</ele>
        <time>2014-07-12T07:58:06Z</time>
      </trkpt>
      <trkpt lat="44.3158" lon="2.69324">
        <ele>831.6777344</ele>
        <time>2014-07-12T07:58:11Z</time>
      </trkpt>
      <trkpt lat="44.31593" lon="2.69315">
        <ele>831.6777344</ele>
        <time>2014-07-12T07:58:16Z</time>
      </trkpt>
      <trkpt lat="44.31603" lon="2.69307">
        <ele>831.6777344</ele>
        <time>2014-07-12T07:58:20Z</time>
      </trkpt>
      <trkpt lat="44.31616" lon="2.69299">
        <ele>830.7165527</ele>
        <time>2014-07-12T07:58:25Z</time>
      </trkpt>
      <trkpt lat="44.31625" lon="2.69293">
        <ele>830.2358398</ele>
        <time>2014-07-12T07:58:29Z</time>
      </trkpt>
      <trkpt lat="44.31637" lon="2.69282">
        <ele>829.755127</ele>
        <time>2014-07-12T07:58:34Z</time>
      </trkpt>
      <trkpt lat="44.31649" lon="2.69269">
        <ele>829.755127</ele>
        <time>2014-07-12T07:58:39Z</time>
      </trkpt>
      <trkpt lat="44.3166" lon="2.69257">
        <ele>830.2358398</ele>
        <time>2014-07-12T07:58:44Z</time>
      </trkpt>
      <trkpt lat="44.3167" lon="2.69242">
        <ele>830.2358398</ele>
        <time>2014-07-12T07:58:49Z</time>
      </trkpt>
      <trkpt lat="44.31681" lon="2.69229">
        <ele>830.7165527</ele>
        <time>2014-07-12T07:58:54Z</time>
      </trkpt>
      <trkpt lat="44.31686" lon="2.69221">
        <ele>830.7165527</ele>
        <time>2014-07-12T07:58:58Z</time>
      </trkpt>
      <trkpt lat="44.31679" lon="2.69234">
        <ele>830.7165527</ele>
        <time>2014-07-12T07:59:03Z</time>
      </trkpt>
      <trkpt lat="44.31662" lon="2.69259">
        <ele>831.1972656</ele>
        <time>2014-07-12T07:59:12Z</time>
      </trkpt>
      <trkpt lat="44.31654" lon="2.69269">
        <ele>831.6777344</ele>
        <time>2014-07-12T07:59:17Z</time>
      </trkpt>
      <trkpt lat="44.31661" lon="2.69259">
        <ele>830.2358398</ele>
        <time>2014-07-12T07:59:22Z</time>
      </trkpt>
      <trkpt lat="44.31663" lon="2.69256">
        <ele>830.7165527</ele>
        <time>2014-07-12T07:59:23Z</time>
      </trkpt>
      <trkpt lat="44.31675" lon="2.69239">
        <ele>830.2358398</ele>
        <time>2014-07-12T07:59:29Z</time>
      </trkpt>
      <trkpt lat="44.31684" lon="2.69223">
        <ele>830.2358398</ele>
        <time>2014-07-12T07:59:34Z</time>
      </trkpt>
      <trkpt lat="44.31692" lon="2.69207">
        <ele>830.2358398</ele>
        <time>2014-07-12T07:59:39Z</time>
      </trkpt>
      <trkpt lat="44.31699" lon="2.69193">
        <ele>828.7939453</ele>
        <time>2014-07-12T07:59:43Z</time>
      </trkpt>
      <trkpt lat="44.31701" lon="2.6919">
        <ele>828.7939453</ele>
        <time>2014-07-12T07:59:44Z</time>
      </trkpt>
      <trkpt lat="44.3171" lon="2.69177">
        <ele>828.3132324</ele>
        <time>2014-07-12T07:59:49Z</time>
      </trkpt>
      <trkpt lat="44.31723" lon="2.69157">
        <ele>829.2744141</ele>
        <time>2014-07-12T07:59:56Z</time>
      </trkpt>
      <trkpt lat="44.31732" lon="2.69138">
        <ele>829.2744141</ele>
        <time>2014-07-12T08:00:02Z</time>
      </trkpt>
      <trkpt lat="44.31744" lon="2.69122">
        <ele>828.7939453</ele>
        <time>2014-07-12T08:00:08Z</time>
      </trkpt>
      <trkpt lat="44.31751" lon="2.6911">
        <ele>828.3132324</ele>
        <time>2014-07-12T08:00:12Z</time>
      </trkpt>
      <trkpt lat="44.31761" lon="2.69094">
        <ele>828.7939453</ele>
        <time>2014-07-12T08:00:18Z</time>
      </trkpt>
      <trkpt lat="44.31772" lon="2.69076">
        <ele>828.3132324</ele>
        <time>2014-07-12T08:00:24Z</time>
      </trkpt>
      <trkpt lat="44.31782" lon="2.69059">
        <ele>827.8322754</ele>
        <time>2014-07-12T08:00:30Z</time>
      </trkpt>
      <trkpt lat="44.31792" lon="2.69044">
        <ele>825.909668</ele>
        <time>2014-07-12T08:00:36Z</time>
      </trkpt>
      <trkpt lat="44.31803" lon="2.69022">
        <ele>825.4289551</ele>
        <time>2014-07-12T08:00:43Z</time>
      </trkpt>
      <trkpt lat="44.31814" lon="2.69">
        <ele>825.4289551</ele>
        <time>2014-07-12T08:00:50Z</time>
      </trkpt>
      <trkpt lat="44.31822" lon="2.68979">
        <ele>826.3903809</ele>
        <time>2014-07-12T08:00:56Z</time>
      </trkpt>
      <trkpt lat="44.3183" lon="2.68954">
        <ele>827.3518066</ele>
        <time>2014-07-12T08:01:03Z</time>
      </trkpt>
      <trkpt lat="44.31836" lon="2.68934">
        <ele>825.909668</ele>
        <time>2014-07-12T08:01:09Z</time>
      </trkpt>
      <trkpt lat="44.31839" lon="2.68917">
        <ele>824.4677734</ele>
        <time>2014-07-12T08:01:14Z</time>
      </trkpt>
      <trkpt lat="44.3184" lon="2.68895">
        <ele>823.0258789</ele>
        <time>2014-07-12T08:01:20Z</time>
      </trkpt>
      <trkpt lat="44.31841" lon="2.68879">
        <ele>821.5837402</ele>
        <time>2014-07-12T08:01:24Z</time>
      </trkpt>
      <trkpt lat="44.31842" lon="2.68856">
        <ele>821.1032715</ele>
        <time>2014-07-12T08:01:30Z</time>
      </trkpt>
      <trkpt lat="44.31843" lon="2.68833">
        <ele>822.545166</ele>
        <time>2014-07-12T08:01:36Z</time>
      </trkpt>
      <trkpt lat="44.31844" lon="2.6881">
        <ele>824.4677734</ele>
        <time>2014-07-12T08:01:42Z</time>
      </trkpt>
      <trkpt lat="44.31845" lon="2.6878">
        <ele>825.4289551</ele>
        <time>2014-07-12T08:01:50Z</time>
      </trkpt>
      <trkpt lat="44.31847" lon="2.68762">
        <ele>824.9484863</ele>
        <time>2014-07-12T08:01:55Z</time>
      </trkpt>
      <trkpt lat="44.31851" lon="2.68742">
        <ele>823.9870605</ele>
        <time>2014-07-12T08:02:01Z</time>
      </trkpt>
      <trkpt lat="44.31852" lon="2.68724">
        <ele>824.4677734</ele>
        <time>2014-07-12T08:02:06Z</time>
      </trkpt>
      <trkpt lat="44.31858" lon="2.68702">
        <ele>824.4677734</ele>
        <time>2014-07-12T08:02:12Z</time>
      </trkpt>
      <trkpt lat="44.31863" lon="2.68683">
        <ele>823.0258789</ele>
        <time>2014-07-12T08:02:18Z</time>
      </trkpt>
      <trkpt lat="44.31869" lon="2.68666">
        <ele>822.545166</ele>
        <time>2014-07-12T08:02:23Z</time>
      </trkpt>
      <trkpt lat="44.31874" lon="2.68648">
        <ele>822.545166</ele>
        <time>2014-07-12T08:02:28Z</time>
      </trkpt>
      <trkpt lat="44.31878" lon="2.68637">
        <ele>822.545166</ele>
        <time>2014-07-12T08:02:32Z</time>
      </trkpt>
      <trkpt lat="44.31882" lon="2.68623">
        <ele>822.0644531</ele>
        <time>2014-07-12T08:02:36Z</time>
      </trkpt>
      <trkpt lat="44.31888" lon="2.68605">
        <ele>822.545166</ele>
        <time>2014-07-12T08:02:41Z</time>
      </trkpt>
      <trkpt lat="44.31893" lon="2.68585">
        <ele>822.0644531</ele>
        <time>2014-07-12T08:02:47Z</time>
      </trkpt>
      <trkpt lat="44.31897" lon="2.68566">
        <ele>821.1032715</ele>
        <time>2014-07-12T08:02:53Z</time>
      </trkpt>
      <trkpt lat="44.31903" lon="2.68547">
        <ele>820.6225586</ele>
        <time>2014-07-12T08:02:58Z</time>
      </trkpt>
      <trkpt lat="44.31904" lon="2.68542">
        <ele>820.1418457</ele>
        <time>2014-07-12T08:03:00Z</time>
      </trkpt>
      <trkpt lat="44.31904" lon="2.6854">
        <ele>821.1032715</ele>
        <time>2014-07-12T08:03:10Z</time>
      </trkpt>
      <trkpt lat="44.31906" lon="2.68535">
        <ele>821.5837402</ele>
        <time>2014-07-12T08:03:15Z</time>
      </trkpt>
      <trkpt lat="44.3191" lon="2.68529">
        <ele>821.5837402</ele>
        <time>2014-07-12T08:03:18Z</time>
      </trkpt>
      <trkpt lat="44.31916" lon="2.68506">
        <ele>820.6225586</ele>
        <time>2014-07-12T08:03:24Z</time>
      </trkpt>
      <trkpt lat="44.31922" lon="2.68494">
        <ele>819.661377</ele>
        <time>2014-07-12T08:03:28Z</time>
      </trkpt>
      <trkpt lat="44.3193" lon="2.68482">
        <ele>819.1806641</ele>
        <time>2014-07-12T08:03:32Z</time>
      </trkpt>
      <trkpt lat="44.31942" lon="2.6847">
        <ele>818.6999512</ele>
        <time>2014-07-12T08:03:37Z</time>
      </trkpt>
      <trkpt lat="44.31954" lon="2.68462">
        <ele>818.6999512</ele>
        <time>2014-07-12T08:03:42Z</time>
      </trkpt>
      <trkpt lat="44.31969" lon="2.6845">
        <ele>817.7385254</ele>
        <time>2014-07-12T08:03:48Z</time>
      </trkpt>
      <trkpt lat="44.31978" lon="2.68439">
        <ele>817.7385254</ele>
        <time>2014-07-12T08:03:52Z</time>
      </trkpt>
      <trkpt lat="44.31985" lon="2.68428">
        <ele>817.2580566</ele>
        <time>2014-07-12T08:03:56Z</time>
      </trkpt>
      <trkpt lat="44.3199" lon="2.68421">
        <ele>817.7385254</ele>
        <time>2014-07-12T08:03:58Z</time>
      </trkpt>
      <trkpt lat="44.31994" lon="2.68406">
        <ele>816.2966309</ele>
        <time>2014-07-12T08:04:02Z</time>
      </trkpt>
      <trkpt lat="44.31998" lon="2.68399">
        <ele>815.8161621</ele>
        <time>2014-07-12T08:04:04Z</time>
      </trkpt>
      <trkpt lat="44.32006" lon="2.68385">
        <ele>814.8547363</ele>
        <time>2014-07-12T08:04:09Z</time>
      </trkpt>
      <trkpt lat="44.32014" lon="2.68369">
        <ele>814.8547363</ele>
        <time>2014-07-12T08:04:14Z</time>
      </trkpt>
      <trkpt lat="44.32022" lon="2.68345">
        <ele>816.2966309</ele>
        <time>2014-07-12T08:04:21Z</time>
      </trkpt>
      <trkpt lat="44.32026" lon="2.68323">
        <ele>816.2966309</ele>
        <time>2014-07-12T08:04:27Z</time>
      </trkpt>
      <trkpt lat="44.32028" lon="2.68304">
        <ele>815.8161621</ele>
        <time>2014-07-12T08:04:33Z</time>
      </trkpt>
      <trkpt lat="44.32028" lon="2.68294">
        <ele>816.2966309</ele>
        <time>2014-07-12T08:04:36Z</time>
      </trkpt>
      <trkpt lat="44.32039" lon="2.68289">
        <ele>817.2580566</ele>
        <time>2014-07-12T08:04:41Z</time>
      </trkpt>
      <trkpt lat="44.3205" lon="2.68282">
        <ele>818.2192383</ele>
        <time>2014-07-12T08:04:47Z</time>
      </trkpt>
      <trkpt lat="44.32055" lon="2.68276">
        <ele>818.6999512</ele>
        <time>2014-07-12T08:04:49Z</time>
      </trkpt>
      <trkpt lat="44.3206" lon="2.68263">
        <ele>817.7385254</ele>
        <time>2014-07-12T08:04:54Z</time>
      </trkpt>
      <trkpt lat="44.32066" lon="2.68244">
        <ele>816.2966309</ele>
        <time>2014-07-12T08:05:00Z</time>
      </trkpt>
      <trkpt lat="44.32068" lon="2.68242">
        <ele>816.2966309</ele>
        <time>2014-07-12T08:05:01Z</time>
      </trkpt>
      <trkpt lat="44.32074" lon="2.68225">
        <ele>814.8547363</ele>
        <time>2014-07-12T08:05:07Z</time>
      </trkpt>
      <trkpt lat="44.32075" lon="2.68215">
        <ele>815.3354492</ele>
        <time>2014-07-12T08:05:10Z</time>
      </trkpt>
      <trkpt lat="44.32068" lon="2.68191">
        <ele>818.6999512</ele>
        <time>2014-07-12T08:05:16Z</time>
      </trkpt>
      <trkpt lat="44.32064" lon="2.68173">
        <ele>822.0644531</ele>
        <time>2014-07-12T08:05:21Z</time>
      </trkpt>
      <trkpt lat="44.32062" lon="2.68155">
        <ele>823.5065918</ele>
        <time>2014-07-12T08:05:26Z</time>
      </trkpt>
      <trkpt lat="44.32061" lon="2.6813">
        <ele>824.4677734</ele>
        <time>2014-07-12T08:05:32Z</time>
      </trkpt>
      <trkpt lat="44.32061" lon="2.68123">
        <ele>823.9870605</ele>
        <time>2014-07-12T08:05:34Z</time>
      </trkpt>
      <trkpt lat="44.32065" lon="2.68108">
        <ele>823.0258789</ele>
        <time>2014-07-12T08:05:39Z</time>
      </trkpt>
      <trkpt lat="44.32066" lon="2.68085">
        <ele>823.0258789</ele>
        <time>2014-07-12T08:05:45Z</time>
      </trkpt>
      <trkpt lat="44.32069" lon="2.68068">
        <ele>823.5065918</ele>
        <time>2014-07-12T08:05:50Z</time>
      </trkpt>
      <trkpt lat="44.3207" lon="2.68061">
        <ele>823.0258789</ele>
        <time>2014-07-12T08:05:52Z</time>
      </trkpt>
      <trkpt lat="44.32073" lon="2.68042">
        <ele>822.545166</ele>
        <time>2014-07-12T08:05:57Z</time>
      </trkpt>
      <trkpt lat="44.32076" lon="2.68026">
        <ele>823.0258789</ele>
        <time>2014-07-12T08:06:02Z</time>
      </trkpt>
      <trkpt lat="44.32079" lon="2.68015">
        <ele>824.4677734</ele>
        <time>2014-07-12T08:06:05Z</time>
      </trkpt>
      <trkpt lat="44.32084" lon="2.67993">
        <ele>824.9484863</ele>
        <time>2014-07-12T08:06:11Z</time>
      </trkpt>
      <trkpt lat="44.32089" lon="2.67976">
        <ele>824.9484863</ele>
        <time>2014-07-12T08:06:16Z</time>
      </trkpt>
      <trkpt lat="44.32093" lon="2.67958">
        <ele>825.909668</ele>
        <time>2014-07-12T08:06:21Z</time>
      </trkpt>
      <trkpt lat="44.32098" lon="2.6794">
        <ele>826.8710938</ele>
        <time>2014-07-12T08:06:26Z</time>
      </trkpt>
      <trkpt lat="44.321" lon="2.6793">
        <ele>827.3518066</ele>
        <time>2014-07-12T08:06:29Z</time>
      </trkpt>
      <trkpt lat="44.3211" lon="2.67908">
        <ele>828.3132324</ele>
        <time>2014-07-12T08:06:36Z</time>
      </trkpt>
      <trkpt lat="44.32118" lon="2.67895">
        <ele>828.7939453</ele>
        <time>2014-07-12T08:06:41Z</time>
      </trkpt>
      <trkpt lat="44.32126" lon="2.67879">
        <ele>828.7939453</ele>
        <time>2014-07-12T08:06:47Z</time>
      </trkpt>
      <trkpt lat="44.32131" lon="2.67865">
        <ele>829.2744141</ele>
        <time>2014-07-12T08:06:51Z</time>
      </trkpt>
      <trkpt lat="44.32135" lon="2.6785">
        <ele>829.2744141</ele>
        <time>2014-07-12T08:06:55Z</time>
      </trkpt>
      <trkpt lat="44.32139" lon="2.67832">
        <ele>829.755127</ele>
        <time>2014-07-12T08:07:00Z</time>
      </trkpt>
      <trkpt lat="44.32142" lon="2.67813">
        <ele>830.2358398</ele>
        <time>2014-07-12T08:07:05Z</time>
      </trkpt>
      <trkpt lat="44.32143" lon="2.67798">
        <ele>830.7165527</ele>
        <time>2014-07-12T08:07:09Z</time>
      </trkpt>
      <trkpt lat="44.32147" lon="2.67779">
        <ele>830.7165527</ele>
        <time>2014-07-12T08:07:14Z</time>
      </trkpt>
      <trkpt lat="44.32149" lon="2.67764">
        <ele>830.2358398</ele>
        <time>2014-07-12T08:07:18Z</time>
      </trkpt>
      <trkpt lat="44.32151" lon="2.67747">
        <ele>830.2358398</ele>
        <time>2014-07-12T08:07:22Z</time>
      </trkpt>
      <trkpt lat="44.32154" lon="2.67733">
        <ele>830.2358398</ele>
        <time>2014-07-12T08:07:26Z</time>
      </trkpt>
      <trkpt lat="44.32157" lon="2.67708">
        <ele>831.1972656</ele>
        <time>2014-07-12T08:07:33Z</time>
      </trkpt>
      <trkpt lat="44.32159" lon="2.67684">
        <ele>832.1584473</ele>
        <time>2014-07-12T08:07:39Z</time>
      </trkpt>
      <trkpt lat="44.32162" lon="2.67662">
        <ele>830.7165527</ele>
        <time>2014-07-12T08:07:45Z</time>
      </trkpt>
      <trkpt lat="44.32164" lon="2.67648">
        <ele>830.2358398</ele>
        <time>2014-07-12T08:07:49Z</time>
      </trkpt>
      <trkpt lat="44.32167" lon="2.67625">
        <ele>828.3132324</ele>
        <time>2014-07-12T08:07:55Z</time>
      </trkpt>
      <trkpt lat="44.32171" lon="2.67601">
        <ele>825.909668</ele>
        <time>2014-07-12T08:08:01Z</time>
      </trkpt>
      <trkpt lat="44.32175" lon="2.67582">
        <ele>824.9484863</ele>
        <time>2014-07-12T08:08:06Z</time>
      </trkpt>
      <trkpt lat="44.32179" lon="2.67558">
        <ele>823.0258789</ele>
        <time>2014-07-12T08:08:12Z</time>
      </trkpt>
      <trkpt lat="44.32185" lon="2.67535">
        <ele>821.5837402</ele>
        <time>2014-07-12T08:08:18Z</time>
      </trkpt>
      <trkpt lat="44.3219" lon="2.67511">
        <ele>819.661377</ele>
        <time>2014-07-12T08:08:24Z</time>
      </trkpt>
      <trkpt lat="44.32195" lon="2.67487">
        <ele>817.2580566</ele>
        <time>2014-07-12T08:08:30Z</time>
      </trkpt>
      <trkpt lat="44.32199" lon="2.67471">
        <ele>815.8161621</ele>
        <time>2014-07-12T08:08:34Z</time>
      </trkpt>
      <trkpt lat="44.32205" lon="2.67448">
        <ele>815.3354492</ele>
        <time>2014-07-12T08:08:40Z</time>
      </trkpt>
      <trkpt lat="44.32208" lon="2.67427">
        <ele>814.3740234</ele>
        <time>2014-07-12T08:08:45Z</time>
      </trkpt>
      <trkpt lat="44.32207" lon="2.67407">
        <ele>813.4128418</ele>
        <time>2014-07-12T08:08:50Z</time>
      </trkpt>
      <trkpt lat="44.32206" lon="2.67395">
        <ele>812.9321289</ele>
        <time>2014-07-12T08:08:53Z</time>
      </trkpt>
      <trkpt lat="44.32203" lon="2.67378">
        <ele>811.0092773</ele>
        <time>2014-07-12T08:08:57Z</time>
      </trkpt>
      <trkpt lat="44.32204" lon="2.67362">
        <ele>809.5673828</ele>
        <time>2014-07-12T08:09:01Z</time>
      </trkpt>
      <trkpt lat="44.32209" lon="2.67333">
        <ele>807.1640625</ele>
        <time>2014-07-12T08:09:08Z</time>
      </trkpt>
      <trkpt lat="44.32213" lon="2.67318">
        <ele>806.6833496</ele>
        <time>2014-07-12T08:09:12Z</time>
      </trkpt>
      <trkpt lat="44.32216" lon="2.67296">
        <ele>806.6833496</ele>
        <time>2014-07-12T08:09:17Z</time>
      </trkpt>
      <trkpt lat="44.32223" lon="2.67277">
        <ele>806.6833496</ele>
        <time>2014-07-12T08:09:22Z</time>
      </trkpt>
      <trkpt lat="44.32237" lon="2.67255">
        <ele>804.7607422</ele>
        <time>2014-07-12T08:09:29Z</time>
      </trkpt>
      <trkpt lat="44.32247" lon="2.6724">
        <ele>803.3188477</ele>
        <time>2014-07-12T08:09:34Z</time>
      </trkpt>
      <trkpt lat="44.32248" lon="2.67237">
        <ele>803.3188477</ele>
        <time>2014-07-12T08:09:35Z</time>
      </trkpt>
      <trkpt lat="44.32263" lon="2.67219">
        <ele>802.3574219</ele>
        <time>2014-07-12T08:09:42Z</time>
      </trkpt>
      <trkpt lat="44.32276" lon="2.67202">
        <ele>802.8381348</ele>
        <time>2014-07-12T08:09:48Z</time>
      </trkpt>
      <trkpt lat="44.32283" lon="2.67191">
        <ele>802.8381348</ele>
        <time>2014-07-12T08:09:52Z</time>
      </trkpt>
      <trkpt lat="44.32295" lon="2.67175">
        <ele>802.3574219</ele>
        <time>2014-07-12T08:09:58Z</time>
      </trkpt>
      <trkpt lat="44.32304" lon="2.67164">
        <ele>802.8381348</ele>
        <time>2014-07-12T08:10:02Z</time>
      </trkpt>
      <trkpt lat="44.32306" lon="2.67161">
        <ele>802.8381348</ele>
        <time>2014-07-12T08:10:03Z</time>
      </trkpt>
      <trkpt lat="44.32315" lon="2.67152">
        <ele>802.8381348</ele>
        <time>2014-07-12T08:10:07Z</time>
      </trkpt>
      <trkpt lat="44.3233" lon="2.6714">
        <ele>801.8769531</ele>
        <time>2014-07-12T08:10:13Z</time>
      </trkpt>
      <trkpt lat="44.32339" lon="2.67128">
        <ele>800.9155273</ele>
        <time>2014-07-12T08:10:17Z</time>
      </trkpt>
      <trkpt lat="44.32351" lon="2.67116">
        <ele>800.9155273</ele>
        <time>2014-07-12T08:10:22Z</time>
      </trkpt>
      <trkpt lat="44.32364" lon="2.67105">
        <ele>801.8769531</ele>
        <time>2014-07-12T08:10:27Z</time>
      </trkpt>
      <trkpt lat="44.32377" lon="2.6709">
        <ele>802.3574219</ele>
        <time>2014-07-12T08:10:33Z</time>
      </trkpt>
      <trkpt lat="44.32388" lon="2.6708">
        <ele>802.8381348</ele>
        <time>2014-07-12T08:10:38Z</time>
      </trkpt>
      <trkpt lat="44.32401" lon="2.6707">
        <ele>802.8381348</ele>
        <time>2014-07-12T08:10:43Z</time>
      </trkpt>
      <trkpt lat="44.3241" lon="2.6706">
        <ele>802.8381348</ele>
        <time>2014-07-12T08:10:47Z</time>
      </trkpt>
      <trkpt lat="44.32422" lon="2.67049">
        <ele>802.3574219</ele>
        <time>2014-07-12T08:10:52Z</time>
      </trkpt>
      <trkpt lat="44.32433" lon="2.67037">
        <ele>802.8381348</ele>
        <time>2014-07-12T08:10:57Z</time>
      </trkpt>
      <trkpt lat="44.32444" lon="2.67026">
        <ele>804.2802734</ele>
        <time>2014-07-12T08:11:02Z</time>
      </trkpt>
      <trkpt lat="44.32454" lon="2.67018">
        <ele>805.2414551</ele>
        <time>2014-07-12T08:11:06Z</time>
      </trkpt>
      <trkpt lat="44.32466" lon="2.67005">
        <ele>804.7607422</ele>
        <time>2014-07-12T08:11:11Z</time>
      </trkpt>
      <trkpt lat="44.32482" lon="2.66991">
        <ele>804.7607422</ele>
        <time>2014-07-12T08:11:17Z</time>
      </trkpt>
      <trkpt lat="44.32495" lon="2.66978">
        <ele>804.2802734</ele>
        <time>2014-07-12T08:11:23Z</time>
      </trkpt>
      <trkpt lat="44.32507" lon="2.66966">
        <ele>804.2802734</ele>
        <time>2014-07-12T08:11:28Z</time>
      </trkpt>
      <trkpt lat="44.32519" lon="2.66959">
        <ele>803.7995605</ele>
        <time>2014-07-12T08:11:33Z</time>
      </trkpt>
      <trkpt lat="44.32539" lon="2.66947">
        <ele>801.8769531</ele>
        <time>2014-07-12T08:11:40Z</time>
      </trkpt>
      <trkpt lat="44.32557" lon="2.66934">
        <ele>799.9543457</ele>
        <time>2014-07-12T08:11:47Z</time>
      </trkpt>
      <trkpt lat="44.32566" lon="2.66928">
        <ele>797.5510254</ele>
        <time>2014-07-12T08:11:51Z</time>
      </trkpt>
      <trkpt lat="44.32579" lon="2.66919">
        <ele>796.5898438</ele>
        <time>2014-07-12T08:11:56Z</time>
      </trkpt>
      <trkpt lat="44.32592" lon="2.66907">
        <ele>796.1091309</ele>
        <time>2014-07-12T08:12:01Z</time>
      </trkpt>
      <trkpt lat="44.32603" lon="2.66896">
        <ele>794.1862793</ele>
        <time>2014-07-12T08:12:06Z</time>
      </trkpt>
      <trkpt lat="44.32612" lon="2.66885">
        <ele>793.7055664</ele>
        <time>2014-07-12T08:12:10Z</time>
      </trkpt>
      <trkpt lat="44.32617" lon="2.66877">
        <ele>793.2248535</ele>
        <time>2014-07-12T08:12:13Z</time>
      </trkpt>
      <trkpt lat="44.32622" lon="2.66859">
        <ele>791.3022461</ele>
        <time>2014-07-12T08:12:18Z</time>
      </trkpt>
      <trkpt lat="44.32625" lon="2.66847">
        <ele>788.418457</ele>
        <time>2014-07-12T08:12:24Z</time>
      </trkpt>
      <trkpt lat="44.32628" lon="2.66838">
        <ele>788.418457</ele>
        <time>2014-07-12T08:12:27Z</time>
      </trkpt>
      <trkpt lat="44.32632" lon="2.66817">
        <ele>787.9377441</ele>
        <time>2014-07-12T08:12:32Z</time>
      </trkpt>
      <trkpt lat="44.32631" lon="2.66813">
        <ele>787.9377441</ele>
        <time>2014-07-12T08:12:33Z</time>
      </trkpt>
      <trkpt lat="44.32624" lon="2.66791">
        <ele>786.4958496</ele>
        <time>2014-07-12T08:12:38Z</time>
      </trkpt>
      <trkpt lat="44.32622" lon="2.66782">
        <ele>786.0151367</ele>
        <time>2014-07-12T08:12:40Z</time>
      </trkpt>
      <trkpt lat="44.32626" lon="2.66761">
        <ele>783.1311035</ele>
        <time>2014-07-12T08:12:45Z</time>
      </trkpt>
      <trkpt lat="44.32629" lon="2.66744">
        <ele>782.1699219</ele>
        <time>2014-07-12T08:12:49Z</time>
      </trkpt>
      <trkpt lat="44.32631" lon="2.66727">
        <ele>781.2087402</ele>
        <time>2014-07-12T08:12:53Z</time>
      </trkpt>
      <trkpt lat="44.32634" lon="2.66709">
        <ele>780.2473145</ele>
        <time>2014-07-12T08:12:58Z</time>
      </trkpt>
      <trkpt lat="44.32638" lon="2.66694">
        <ele>777.84375</ele>
        <time>2014-07-12T08:13:02Z</time>
      </trkpt>
      <trkpt lat="44.32641" lon="2.66678">
        <ele>777.3632813</ele>
        <time>2014-07-12T08:13:06Z</time>
      </trkpt>
      <trkpt lat="44.32642" lon="2.66658">
        <ele>777.3632813</ele>
        <time>2014-07-12T08:13:11Z</time>
      </trkpt>
      <trkpt lat="44.32645" lon="2.66637">
        <ele>778.3244629</ele>
        <time>2014-07-12T08:13:16Z</time>
      </trkpt>
      <trkpt lat="44.32649" lon="2.66621">
        <ele>778.3244629</ele>
        <time>2014-07-12T08:13:20Z</time>
      </trkpt>
      <trkpt lat="44.32656" lon="2.66603">
        <ele>776.8825684</ele>
        <time>2014-07-12T08:13:25Z</time>
      </trkpt>
      <trkpt lat="44.32661" lon="2.6659">
        <ele>775.9211426</ele>
        <time>2014-07-12T08:13:29Z</time>
      </trkpt>
      <trkpt lat="44.3267" lon="2.6657">
        <ele>773.9985352</ele>
        <time>2014-07-12T08:13:34Z</time>
      </trkpt>
      <trkpt lat="44.32682" lon="2.66556">
        <ele>771.5952148</ele>
        <time>2014-07-12T08:13:39Z</time>
      </trkpt>
      <trkpt lat="44.32692" lon="2.66548">
        <ele>769.6728516</ele>
        <time>2014-07-12T08:13:43Z</time>
      </trkpt>
      <trkpt lat="44.32698" lon="2.66544">
        <ele>769.1921387</ele>
        <time>2014-07-12T08:13:45Z</time>
      </trkpt>
      <trkpt lat="44.32714" lon="2.66534">
        <ele>767.75</ele>
        <time>2014-07-12T08:13:51Z</time>
      </trkpt>
      <trkpt lat="44.32732" lon="2.6652">
        <ele>767.2695313</ele>
        <time>2014-07-12T08:13:58Z</time>
      </trkpt>
      <trkpt lat="44.32742" lon="2.66512">
        <ele>765.8276367</ele>
        <time>2014-07-12T08:14:02Z</time>
      </trkpt>
      <trkpt lat="44.32752" lon="2.66505">
        <ele>764.8662109</ele>
        <time>2014-07-12T08:14:06Z</time>
      </trkpt>
      <trkpt lat="44.3276" lon="2.66499">
        <ele>765.3469238</ele>
        <time>2014-07-12T08:14:09Z</time>
      </trkpt>
      <trkpt lat="44.32772" lon="2.66492">
        <ele>765.3469238</ele>
        <time>2014-07-12T08:14:14Z</time>
      </trkpt>
      <trkpt lat="44.32785" lon="2.66487">
        <ele>765.8276367</ele>
        <time>2014-07-12T08:14:19Z</time>
      </trkpt>
      <trkpt lat="44.32801" lon="2.66475">
        <ele>765.3469238</ele>
        <time>2014-07-12T08:14:25Z</time>
      </trkpt>
      <trkpt lat="44.32814" lon="2.66465">
        <ele>763.4240723</ele>
        <time>2014-07-12T08:14:30Z</time>
      </trkpt>
      <trkpt lat="44.32828" lon="2.6646">
        <ele>761.9821777</ele>
        <time>2014-07-12T08:14:35Z</time>
      </trkpt>
      <trkpt lat="44.32839" lon="2.66455">
        <ele>759.5788574</ele>
        <time>2014-07-12T08:14:39Z</time>
      </trkpt>
      <trkpt lat="44.32849" lon="2.66446">
        <ele>759.0981445</ele>
        <time>2014-07-12T08:14:43Z</time>
      </trkpt>
      <trkpt lat="44.3286" lon="2.66445">
        <ele>757.65625</ele>
        <time>2014-07-12T08:14:47Z</time>
      </trkpt>
      <trkpt lat="44.32876" lon="2.66443">
        <ele>755.2529297</ele>
        <time>2014-07-12T08:14:52Z</time>
      </trkpt>
      <trkpt lat="44.32891" lon="2.66438">
        <ele>754.7722168</ele>
        <time>2014-07-12T08:14:57Z</time>
      </trkpt>
      <trkpt lat="44.32906" lon="2.66429">
        <ele>753.3303223</ele>
        <time>2014-07-12T08:15:02Z</time>
      </trkpt>
      <trkpt lat="44.32917" lon="2.66415">
        <ele>751.4077148</ele>
        <time>2014-07-12T08:15:07Z</time>
      </trkpt>
      <trkpt lat="44.32924" lon="2.66401">
        <ele>749.9658203</ele>
        <time>2014-07-12T08:15:11Z</time>
      </trkpt>
      <trkpt lat="44.32932" lon="2.66386">
        <ele>749.4851074</ele>
        <time>2014-07-12T08:15:15Z</time>
      </trkpt>
      <trkpt lat="44.32936" lon="2.66366">
        <ele>748.5236816</ele>
        <time>2014-07-12T08:15:20Z</time>
      </trkpt>
      <trkpt lat="44.32925" lon="2.6635">
        <ele>749.4851074</ele>
        <time>2014-07-12T08:15:25Z</time>
      </trkpt>
      <trkpt lat="44.32923" lon="2.66348">
        <ele>749.4851074</ele>
        <time>2014-07-12T08:15:26Z</time>
      </trkpt>
      <trkpt lat="44.32907" lon="2.66339">
        <ele>749.9658203</ele>
        <time>2014-07-12T08:15:32Z</time>
      </trkpt>
      <trkpt lat="44.32889" lon="2.66326">
        <ele>750.927002</ele>
        <time>2014-07-12T08:15:38Z</time>
      </trkpt>
      <trkpt lat="44.32887" lon="2.66324">
        <ele>750.4465332</ele>
        <time>2014-07-12T08:15:39Z</time>
      </trkpt>
      <trkpt lat="44.32876" lon="2.66313">
        <ele>751.4077148</ele>
        <time>2014-07-12T08:15:44Z</time>
      </trkpt>
      <trkpt lat="44.32868" lon="2.66306">
        <ele>751.8884277</ele>
        <time>2014-07-12T08:15:47Z</time>
      </trkpt>
      <trkpt lat="44.32866" lon="2.66304">
        <ele>751.8884277</ele>
        <time>2014-07-12T08:15:48Z</time>
      </trkpt>
      <trkpt lat="44.3285" lon="2.66291">
        <ele>749.9658203</ele>
        <time>2014-07-12T08:15:54Z</time>
      </trkpt>
      <trkpt lat="44.32837" lon="2.66293">
        <ele>748.5236816</ele>
        <time>2014-07-12T08:15:58Z</time>
      </trkpt>
      <trkpt lat="44.32821" lon="2.66302">
        <ele>745.1589355</ele>
        <time>2014-07-12T08:16:03Z</time>
      </trkpt>
      <trkpt lat="44.32809" lon="2.66299">
        <ele>743.2363281</ele>
        <time>2014-07-12T08:16:07Z</time>
      </trkpt>
      <trkpt lat="44.328" lon="2.66294">
        <ele>741.7944336</ele>
        <time>2014-07-12T08:16:10Z</time>
      </trkpt>
      <trkpt lat="44.32792" lon="2.66285">
        <ele>740.3525391</ele>
        <time>2014-07-12T08:16:13Z</time>
      </trkpt>
      <trkpt lat="44.32788" lon="2.66255">
        <ele>739.8718262</ele>
        <time>2014-07-12T08:16:20Z</time>
      </trkpt>
      <trkpt lat="44.3279" lon="2.66236">
        <ele>739.3911133</ele>
        <time>2014-07-12T08:16:24Z</time>
      </trkpt>
      <trkpt lat="44.32794" lon="2.66226">
        <ele>740.3525391</ele>
        <time>2014-07-12T08:16:27Z</time>
      </trkpt>
      <trkpt lat="44.32799" lon="2.66207">
        <ele>738.9106445</ele>
        <time>2014-07-12T08:16:33Z</time>
      </trkpt>
      <trkpt lat="44.32807" lon="2.6619">
        <ele>738.9106445</ele>
        <time>2014-07-12T08:16:38Z</time>
      </trkpt>
      <trkpt lat="44.32815" lon="2.6618">
        <ele>739.3911133</ele>
        <time>2014-07-12T08:16:42Z</time>
      </trkpt>
      <trkpt lat="44.3282" lon="2.66173">
        <ele>740.3525391</ele>
        <time>2014-07-12T08:16:45Z</time>
      </trkpt>
      <trkpt lat="44.32828" lon="2.66158">
        <ele>741.7944336</ele>
        <time>2014-07-12T08:16:50Z</time>
      </trkpt>
      <trkpt lat="44.32838" lon="2.6615">
        <ele>742.2751465</ele>
        <time>2014-07-12T08:16:54Z</time>
      </trkpt>
      <trkpt lat="44.32852" lon="2.66144">
        <ele>745.1589355</ele>
        <time>2014-07-12T08:17:00Z</time>
      </trkpt>
      <trkpt lat="44.32867" lon="2.66134">
        <ele>744.1977539</ele>
        <time>2014-07-12T08:17:06Z</time>
      </trkpt>
      <trkpt lat="44.32881" lon="2.66124">
        <ele>744.1977539</ele>
        <time>2014-07-12T08:17:11Z</time>
      </trkpt>
      <trkpt lat="44.32895" lon="2.66118">
        <ele>744.6782227</ele>
        <time>2014-07-12T08:17:17Z</time>
      </trkpt>
      <trkpt lat="44.32912" lon="2.66112">
        <ele>743.717041</ele>
        <time>2014-07-12T08:17:22Z</time>
      </trkpt>
      <trkpt lat="44.3293" lon="2.66109">
        <ele>741.3137207</ele>
        <time>2014-07-12T08:17:28Z</time>
      </trkpt>
      <trkpt lat="44.32946" lon="2.66105">
        <ele>736.5073242</ele>
        <time>2014-07-12T08:17:33Z</time>
      </trkpt>
      <trkpt lat="44.32961" lon="2.66106">
        <ele>736.0266113</ele>
        <time>2014-07-12T08:17:38Z</time>
      </trkpt>
      <trkpt lat="44.32979" lon="2.66109">
        <ele>736.0266113</ele>
        <time>2014-07-12T08:17:43Z</time>
      </trkpt>
      <trkpt lat="44.32988" lon="2.66112">
        <ele>734.5847168</ele>
        <time>2014-07-12T08:17:47Z</time>
      </trkpt>
      <trkpt lat="44.33004" lon="2.66111">
        <ele>731.7004395</ele>
        <time>2014-07-12T08:17:52Z</time>
      </trkpt>
      <trkpt lat="44.33016" lon="2.66105">
        <ele>730.2585449</ele>
        <time>2014-07-12T08:17:56Z</time>
      </trkpt>
      <trkpt lat="44.33029" lon="2.66097">
        <ele>729.777832</ele>
        <time>2014-07-12T08:18:00Z</time>
      </trkpt>
      <trkpt lat="44.33043" lon="2.66086">
        <ele>727.3747559</ele>
        <time>2014-07-12T08:18:05Z</time>
      </trkpt>
      <trkpt lat="44.33057" lon="2.66076">
        <ele>725.4519043</ele>
        <time>2014-07-12T08:18:10Z</time>
      </trkpt>
      <trkpt lat="44.33069" lon="2.66064">
        <ele>724.0100098</ele>
        <time>2014-07-12T08:18:15Z</time>
      </trkpt>
      <trkpt lat="44.33087" lon="2.66049">
        <ele>724.4907227</ele>
        <time>2014-07-12T08:18:21Z</time>
      </trkpt>
      <trkpt lat="44.331" lon="2.66038">
        <ele>724.4907227</ele>
        <time>2014-07-12T08:18:26Z</time>
      </trkpt>
      <trkpt lat="44.33115" lon="2.6603">
        <ele>722.5681152</ele>
        <time>2014-07-12T08:18:31Z</time>
      </trkpt>
      <trkpt lat="44.33125" lon="2.6602">
        <ele>720.6455078</ele>
        <time>2014-07-12T08:18:35Z</time>
      </trkpt>
      <trkpt lat="44.33136" lon="2.66006">
        <ele>720.1647949</ele>
        <time>2014-07-12T08:18:40Z</time>
      </trkpt>
      <trkpt lat="44.33145" lon="2.65997">
        <ele>719.2036133</ele>
        <time>2014-07-12T08:18:44Z</time>
      </trkpt>
      <trkpt lat="44.33153" lon="2.65992">
        <ele>718.7229004</ele>
        <time>2014-07-12T08:18:47Z</time>
      </trkpt>
      <trkpt lat="44.33157" lon="2.65976">
        <ele>715.3581543</ele>
        <time>2014-07-12T08:18:51Z</time>
      </trkpt>
      <trkpt lat="44.33151" lon="2.65962">
        <ele>712.954834</ele>
        <time>2014-07-12T08:18:55Z</time>
      </trkpt>
      <trkpt lat="44.33144" lon="2.65954">
        <ele>711.5129395</ele>
        <time>2014-07-12T08:18:58Z</time>
      </trkpt>
      <trkpt lat="44.33132" lon="2.65948">
        <ele>709.590332</ele>
        <time>2014-07-12T08:19:04Z</time>
      </trkpt>
      <trkpt lat="44.33122" lon="2.65947">
        <ele>707.6677246</ele>
        <time>2014-07-12T08:19:08Z</time>
      </trkpt>
      <trkpt lat="44.33105" lon="2.65945">
        <ele>702.861084</ele>
        <time>2014-07-12T08:19:14Z</time>
      </trkpt>
      <trkpt lat="44.33088" lon="2.65935">
        <ele>699.015625</ele>
        <time>2014-07-12T08:19:20Z</time>
      </trkpt>
      <trkpt lat="44.33079" lon="2.65914">
        <ele>699.9770508</ele>
        <time>2014-07-12T08:19:26Z</time>
      </trkpt>
      <trkpt lat="44.33073" lon="2.65887">
        <ele>697.0930176</ele>
        <time>2014-07-12T08:19:32Z</time>
      </trkpt>
      <trkpt lat="44.33067" lon="2.65865">
        <ele>693.7285156</ele>
        <time>2014-07-12T08:19:38Z</time>
      </trkpt>
      <trkpt lat="44.33055" lon="2.65844">
        <ele>693.7285156</ele>
        <time>2014-07-12T08:19:43Z</time>
      </trkpt>
      <trkpt lat="44.33046" lon="2.65827">
        <ele>691.3251953</ele>
        <time>2014-07-12T08:19:49Z</time>
      </trkpt>
      <trkpt lat="44.3304" lon="2.65802">
        <ele>689.4025879</ele>
        <time>2014-07-12T08:19:55Z</time>
      </trkpt>
      <trkpt lat="44.33033" lon="2.65786">
        <ele>687.9606934</ele>
        <time>2014-07-12T08:20:00Z</time>
      </trkpt>
      <trkpt lat="44.33022" lon="2.6578">
        <ele>686.9992676</ele>
        <time>2014-07-12T08:20:06Z</time>
      </trkpt>
      <trkpt lat="44.33014" lon="2.65778">
        <ele>688.4414063</ele>
        <time>2014-07-12T08:20:11Z</time>
      </trkpt>
      <trkpt lat="44.33002" lon="2.65769">
        <ele>691.3251953</ele>
        <time>2014-07-12T08:20:17Z</time>
      </trkpt>
      <trkpt lat="44.32989" lon="2.6576">
        <ele>693.2478027</ele>
        <time>2014-07-12T08:20:22Z</time>
      </trkpt>
      <trkpt lat="44.32985" lon="2.65759">
        <ele>693.7285156</ele>
        <time>2014-07-12T08:20:24Z</time>
      </trkpt>
      <trkpt lat="44.3298" lon="2.65758">
        <ele>694.2092285</ele>
        <time>2014-07-12T08:20:28Z</time>
      </trkpt>
      <trkpt lat="44.32977" lon="2.65756">
        <ele>693.7285156</ele>
        <time>2014-07-12T08:20:34Z</time>
      </trkpt>
      <trkpt lat="44.32978" lon="2.65747">
        <ele>696.6125488</ele>
        <time>2014-07-12T08:20:45Z</time>
      </trkpt>
      <trkpt lat="44.32975" lon="2.65749">
        <ele>693.2478027</ele>
        <time>2014-07-12T08:21:21Z</time>
      </trkpt>
      <trkpt lat="44.32976" lon="2.65751">
        <ele>692.2866211</ele>
        <time>2014-07-12T08:21:22Z</time>
      </trkpt>
      <trkpt lat="44.32978" lon="2.65756">
        <ele>686.0380859</ele>
        <time>2014-07-12T08:21:34Z</time>
      </trkpt>
      <trkpt lat="44.32977" lon="2.65751">
        <ele>693.7285156</ele>
        <time>2014-07-12T08:21:52Z</time>
      </trkpt>
      <trkpt lat="44.32971" lon="2.6575">
        <ele>694.6896973</ele>
        <time>2014-07-12T08:21:56Z</time>
      </trkpt>
      <trkpt lat="44.32968" lon="2.65748">
        <ele>694.2092285</ele>
        <time>2014-07-12T08:21:59Z</time>
      </trkpt>
      <trkpt lat="44.3296" lon="2.65745">
        <ele>693.2478027</ele>
        <time>2014-07-12T08:22:07Z</time>
      </trkpt>
      <trkpt lat="44.32953" lon="2.65741">
        <ele>693.2478027</ele>
        <time>2014-07-12T08:22:14Z</time>
      </trkpt>
      <trkpt lat="44.32949" lon="2.6574">
        <ele>692.767334</ele>
        <time>2014-07-12T08:22:17Z</time>
      </trkpt>
      <trkpt lat="44.32942" lon="2.65738">
        <ele>692.767334</ele>
        <time>2014-07-12T08:22:24Z</time>
      </trkpt>
      <trkpt lat="44.32941" lon="2.65738">
        <ele>691.3251953</ele>
        <time>2014-07-12T08:22:29Z</time>
      </trkpt>
      <trkpt lat="44.3294" lon="2.6574">
        <ele>685.557373</ele>
        <time>2014-07-12T08:22:55Z</time>
      </trkpt>
      <trkpt lat="44.32939" lon="2.65739">
        <ele>687.9606934</ele>
        <time>2014-07-12T08:23:08Z</time>
      </trkpt>
      <trkpt lat="44.32932" lon="2.65735">
        <ele>690.3640137</ele>
        <time>2014-07-12T08:23:13Z</time>
      </trkpt>
      <trkpt lat="44.32931" lon="2.65734">
        <ele>690.8444824</ele>
        <time>2014-07-12T08:23:18Z</time>
      </trkpt>
      <trkpt lat="44.3293" lon="2.65734">
        <ele>694.6896973</ele>
        <time>2014-07-12T08:23:52Z</time>
      </trkpt>
      <trkpt lat="44.32922" lon="2.65725">
        <ele>694.6896973</ele>
        <time>2014-07-12T08:23:57Z</time>
      </trkpt>
      <trkpt lat="44.3291" lon="2.6571">
        <ele>694.6896973</ele>
        <time>2014-07-12T08:24:03Z</time>
      </trkpt>
      <trkpt lat="44.32901" lon="2.65695">
        <ele>694.6896973</ele>
        <time>2014-07-12T08:24:08Z</time>
      </trkpt>
      <trkpt lat="44.32896" lon="2.65678">
        <ele>693.2478027</ele>
        <time>2014-07-12T08:24:13Z</time>
      </trkpt>
      <trkpt lat="44.32892" lon="2.65658">
        <ele>689.8833008</ele>
        <time>2014-07-12T08:24:19Z</time>
      </trkpt>
      <trkpt lat="44.3289" lon="2.6565">
        <ele>686.9992676</ele>
        <time>2014-07-12T08:24:23Z</time>
      </trkpt>
      <trkpt lat="44.32889" lon="2.65648">
        <ele>686.5187988</ele>
        <time>2014-07-12T08:24:24Z</time>
      </trkpt>
      <trkpt lat="44.32887" lon="2.65636">
        <ele>682.6733398</ele>
        <time>2014-07-12T08:24:30Z</time>
      </trkpt>
      <trkpt lat="44.32891" lon="2.65617">
        <ele>679.7893066</ele>
        <time>2014-07-12T08:24:35Z</time>
      </trkpt>
      <trkpt lat="44.32901" lon="2.65603">
        <ele>678.3474121</ele>
        <time>2014-07-12T08:24:40Z</time>
      </trkpt>
      <trkpt lat="44.32907" lon="2.65587">
        <ele>675.4633789</ele>
        <time>2014-07-12T08:24:45Z</time>
      </trkpt>
      <trkpt lat="44.32912" lon="2.65568">
        <ele>673.0603027</ele>
        <time>2014-07-12T08:24:50Z</time>
      </trkpt>
      <trkpt lat="44.32917" lon="2.65552">
        <ele>671.1376953</ele>
        <time>2014-07-12T08:24:54Z</time>
      </trkpt>
      <trkpt lat="44.3292" lon="2.65533">
        <ele>670.1762695</ele>
        <time>2014-07-12T08:24:59Z</time>
      </trkpt>
      <trkpt lat="44.32924" lon="2.65509">
        <ele>669.2150879</ele>
        <time>2014-07-12T08:25:05Z</time>
      </trkpt>
      <trkpt lat="44.32923" lon="2.6549">
        <ele>669.6958008</ele>
        <time>2014-07-12T08:25:10Z</time>
      </trkpt>
      <trkpt lat="44.32915" lon="2.65476">
        <ele>669.2150879</ele>
        <time>2014-07-12T08:25:14Z</time>
      </trkpt>
      <trkpt lat="44.32904" lon="2.6546">
        <ele>667.2922363</ele>
        <time>2014-07-12T08:25:20Z</time>
      </trkpt>
      <trkpt lat="44.32891" lon="2.6545">
        <ele>666.3308105</ele>
        <time>2014-07-12T08:25:26Z</time>
      </trkpt>
      <trkpt lat="44.32886" lon="2.65436">
        <ele>666.3308105</ele>
        <time>2014-07-12T08:25:30Z</time>
      </trkpt>
      <trkpt lat="44.32881" lon="2.65416">
        <ele>665.3696289</ele>
        <time>2014-07-12T08:25:35Z</time>
      </trkpt>
      <trkpt lat="44.32879" lon="2.65391">
        <ele>663.4470215</ele>
        <time>2014-07-12T08:25:41Z</time>
      </trkpt>
      <trkpt lat="44.3288" lon="2.65372">
        <ele>662.4855957</ele>
        <time>2014-07-12T08:25:46Z</time>
      </trkpt>
      <trkpt lat="44.32882" lon="2.65353">
        <ele>661.5244141</ele>
        <time>2014-07-12T08:25:51Z</time>
      </trkpt>
      <trkpt lat="44.32884" lon="2.65331">
        <ele>661.0437012</ele>
        <time>2014-07-12T08:25:57Z</time>
      </trkpt>
      <trkpt lat="44.32886" lon="2.65307">
        <ele>661.5244141</ele>
        <time>2014-07-12T08:26:03Z</time>
      </trkpt>
      <trkpt lat="44.32888" lon="2.65287">
        <ele>662.005127</ele>
        <time>2014-07-12T08:26:08Z</time>
      </trkpt>
      <trkpt lat="44.32891" lon="2.65266">
        <ele>662.005127</ele>
        <time>2014-07-12T08:26:13Z</time>
      </trkpt>
      <trkpt lat="44.32897" lon="2.65247">
        <ele>662.4855957</ele>
        <time>2014-07-12T08:26:18Z</time>
      </trkpt>
      <trkpt lat="44.32905" lon="2.65228">
        <ele>662.005127</ele>
        <time>2014-07-12T08:26:23Z</time>
      </trkpt>
      <trkpt lat="44.3291" lon="2.65215">
        <ele>661.5244141</ele>
        <time>2014-07-12T08:26:27Z</time>
      </trkpt>
      <trkpt lat="44.32918" lon="2.65198">
        <ele>660.5629883</ele>
        <time>2014-07-12T08:26:32Z</time>
      </trkpt>
      <trkpt lat="44.32925" lon="2.65184">
        <ele>658.6403809</ele>
        <time>2014-07-12T08:26:36Z</time>
      </trkpt>
      <trkpt lat="44.32934" lon="2.65167">
        <ele>656.7177734</ele>
        <time>2014-07-12T08:26:41Z</time>
      </trkpt>
      <trkpt lat="44.32943" lon="2.65164">
        <ele>654.3146973</ele>
        <time>2014-07-12T08:26:45Z</time>
      </trkpt>
      <trkpt lat="44.32946" lon="2.65163">
        <ele>654.3146973</ele>
        <time>2014-07-12T08:26:46Z</time>
      </trkpt>
      <trkpt lat="44.32956" lon="2.6515">
        <ele>652.8725586</ele>
        <time>2014-07-12T08:26:51Z</time>
      </trkpt>
      <trkpt lat="44.32969" lon="2.65132">
        <ele>653.3532715</ele>
        <time>2014-07-12T08:26:57Z</time>
      </trkpt>
      <trkpt lat="44.32978" lon="2.65117">
        <ele>651.9111328</ele>
        <time>2014-07-12T08:27:02Z</time>
      </trkpt>
      <trkpt lat="44.32989" lon="2.65102">
        <ele>650.4692383</ele>
        <time>2014-07-12T08:27:07Z</time>
      </trkpt>
      <trkpt lat="44.33" lon="2.65095">
        <ele>648.5463867</ele>
        <time>2014-07-12T08:27:11Z</time>
      </trkpt>
      <trkpt lat="44.33008" lon="2.65093">
        <ele>648.065918</ele>
        <time>2014-07-12T08:27:15Z</time>
      </trkpt>
      <trkpt lat="44.33018" lon="2.65084">
        <ele>644.7011719</ele>
        <time>2014-07-12T08:27:20Z</time>
      </trkpt>
      <trkpt lat="44.33026" lon="2.65074">
        <ele>643.7399902</ele>
        <time>2014-07-12T08:27:24Z</time>
      </trkpt>
      <trkpt lat="44.33029" lon="2.65067">
        <ele>643.7399902</ele>
        <time>2014-07-12T08:27:26Z</time>
      </trkpt>
      <trkpt lat="44.33034" lon="2.65049">
        <ele>643.2592773</ele>
        <time>2014-07-12T08:27:31Z</time>
      </trkpt>
      <trkpt lat="44.3304" lon="2.65025">
        <ele>646.1433105</ele>
        <time>2014-07-12T08:27:37Z</time>
      </trkpt>
      <trkpt lat="44.33043" lon="2.65017">
        <ele>647.1044922</ele>
        <time>2014-07-12T08:27:39Z</time>
      </trkpt>
      <trkpt lat="44.33045" lon="2.6499">
        <ele>650.4692383</ele>
        <time>2014-07-12T08:27:45Z</time>
      </trkpt>
      <trkpt lat="44.33048" lon="2.64972">
        <ele>651.9111328</ele>
        <time>2014-07-12T08:27:50Z</time>
      </trkpt>
      <trkpt lat="44.33052" lon="2.64945">
        <ele>651.9111328</ele>
        <time>2014-07-12T08:27:57Z</time>
      </trkpt>
      <trkpt lat="44.33054" lon="2.64931">
        <ele>652.3918457</ele>
        <time>2014-07-12T08:28:02Z</time>
      </trkpt>
      <trkpt lat="44.33054" lon="2.64914">
        <ele>655.7565918</ele>
        <time>2014-07-12T08:28:09Z</time>
      </trkpt>
      <trkpt lat="44.33054" lon="2.649">
        <ele>657.1984863</ele>
        <time>2014-07-12T08:28:16Z</time>
      </trkpt>
      <trkpt lat="44.33055" lon="2.64889">
        <ele>658.1599121</ele>
        <time>2014-07-12T08:28:22Z</time>
      </trkpt>
      <trkpt lat="44.33057" lon="2.64877">
        <ele>659.6018066</ele>
        <time>2014-07-12T08:28:29Z</time>
      </trkpt>
      <trkpt lat="44.33061" lon="2.64865">
        <ele>661.0437012</ele>
        <time>2014-07-12T08:28:36Z</time>
      </trkpt>
      <trkpt lat="44.33065" lon="2.64851">
        <ele>662.9663086</ele>
        <time>2014-07-12T08:28:44Z</time>
      </trkpt>
      <trkpt lat="44.33069" lon="2.64838">
        <ele>663.9274902</ele>
        <time>2014-07-12T08:28:51Z</time>
      </trkpt>
      <trkpt lat="44.33072" lon="2.64821">
        <ele>664.888916</ele>
        <time>2014-07-12T08:28:58Z</time>
      </trkpt>
      <trkpt lat="44.33075" lon="2.64806">
        <ele>666.3308105</ele>
        <time>2014-07-12T08:29:03Z</time>
      </trkpt>
      <trkpt lat="44.33076" lon="2.648">
        <ele>667.2922363</ele>
        <time>2014-07-12T08:29:05Z</time>
      </trkpt>
      <trkpt lat="44.33077" lon="2.6478">
        <ele>669.2150879</ele>
        <time>2014-07-12T08:29:11Z</time>
      </trkpt>
      <trkpt lat="44.33078" lon="2.64763">
        <ele>670.1762695</ele>
        <time>2014-07-12T08:29:16Z</time>
      </trkpt>
      <trkpt lat="44.33081" lon="2.64746">
        <ele>670.6569824</ele>
        <time>2014-07-12T08:29:22Z</time>
      </trkpt>
      <trkpt lat="44.33085" lon="2.64729">
        <ele>670.6569824</ele>
        <time>2014-07-12T08:29:28Z</time>
      </trkpt>
      <trkpt lat="44.33091" lon="2.64707">
        <ele>670.6569824</ele>
        <time>2014-07-12T08:29:35Z</time>
      </trkpt>
      <trkpt lat="44.33095" lon="2.6469">
        <ele>671.6181641</ele>
        <time>2014-07-12T08:29:41Z</time>
      </trkpt>
      <trkpt lat="44.33098" lon="2.64669">
        <ele>672.5795898</ele>
        <time>2014-07-12T08:29:47Z</time>
      </trkpt>
      <trkpt lat="44.33101" lon="2.64649">
        <ele>674.0214844</ele>
        <time>2014-07-12T08:29:53Z</time>
      </trkpt>
      <trkpt lat="44.33106" lon="2.64632">
        <ele>674.0214844</ele>
        <time>2014-07-12T08:29:58Z</time>
      </trkpt>
      <trkpt lat="44.33107" lon="2.64628">
        <ele>674.0214844</ele>
        <time>2014-07-12T08:29:59Z</time>
      </trkpt>
      <trkpt lat="44.33109" lon="2.64605">
        <ele>674.5021973</ele>
        <time>2014-07-12T08:30:06Z</time>
      </trkpt>
      <trkpt lat="44.33112" lon="2.64588">
        <ele>674.0214844</ele>
        <time>2014-07-12T08:30:11Z</time>
      </trkpt>
      <trkpt lat="44.33118" lon="2.64571">
        <ele>673.5410156</ele>
        <time>2014-07-12T08:30:16Z</time>
      </trkpt>
      <trkpt lat="44.33121" lon="2.64565">
        <ele>673.5410156</ele>
        <time>2014-07-12T08:30:18Z</time>
      </trkpt>
      <trkpt lat="44.33126" lon="2.64552">
        <ele>673.5410156</ele>
        <time>2014-07-12T08:30:22Z</time>
      </trkpt>
      <trkpt lat="44.33132" lon="2.64532">
        <ele>673.0603027</ele>
        <time>2014-07-12T08:30:28Z</time>
      </trkpt>
      <trkpt lat="44.33138" lon="2.64511">
        <ele>672.098877</ele>
        <time>2014-07-12T08:30:34Z</time>
      </trkpt>
      <trkpt lat="44.33146" lon="2.64493">
        <ele>671.6181641</ele>
        <time>2014-07-12T08:30:40Z</time>
      </trkpt>
      <trkpt lat="44.33153" lon="2.64477">
        <ele>671.1376953</ele>
        <time>2014-07-12T08:30:45Z</time>
      </trkpt>
      <trkpt lat="44.33158" lon="2.64461">
        <ele>671.1376953</ele>
        <time>2014-07-12T08:30:50Z</time>
      </trkpt>
      <trkpt lat="44.33164" lon="2.64438">
        <ele>671.1376953</ele>
        <time>2014-07-12T08:30:56Z</time>
      </trkpt>
      <trkpt lat="44.33169" lon="2.6442">
        <ele>671.1376953</ele>
        <time>2014-07-12T08:31:01Z</time>
      </trkpt>
      <trkpt lat="44.33175" lon="2.64399">
        <ele>670.6569824</ele>
        <time>2014-07-12T08:31:07Z</time>
      </trkpt>
      <trkpt lat="44.3318" lon="2.64381">
        <ele>670.6569824</ele>
        <time>2014-07-12T08:31:12Z</time>
      </trkpt>
      <trkpt lat="44.33185" lon="2.64363">
        <ele>669.2150879</ele>
        <time>2014-07-12T08:31:17Z</time>
      </trkpt>
      <trkpt lat="44.3319" lon="2.64348">
        <ele>668.2536621</ele>
        <time>2014-07-12T08:31:21Z</time>
      </trkpt>
      <trkpt lat="44.33196" lon="2.64331">
        <ele>667.7727051</ele>
        <time>2014-07-12T08:31:26Z</time>
      </trkpt>
      <trkpt lat="44.33208" lon="2.64303">
        <ele>667.2922363</ele>
        <time>2014-07-12T08:31:34Z</time>
      </trkpt>
      <trkpt lat="44.33217" lon="2.64283">
        <ele>666.3308105</ele>
        <time>2014-07-12T08:31:40Z</time>
      </trkpt>
      <trkpt lat="44.33224" lon="2.64261">
        <ele>664.888916</ele>
        <time>2014-07-12T08:31:46Z</time>
      </trkpt>
      <trkpt lat="44.3323" lon="2.64246">
        <ele>664.4082031</ele>
        <time>2014-07-12T08:31:50Z</time>
      </trkpt>
      <trkpt lat="44.33238" lon="2.64223">
        <ele>663.9274902</ele>
        <time>2014-07-12T08:31:56Z</time>
      </trkpt>
      <trkpt lat="44.33239" lon="2.6422">
        <ele>663.9274902</ele>
        <time>2014-07-12T08:31:57Z</time>
      </trkpt>
      <trkpt lat="44.33247" lon="2.64199">
        <ele>664.4082031</ele>
        <time>2014-07-12T08:32:03Z</time>
      </trkpt>
      <trkpt lat="44.33254" lon="2.64182">
        <ele>663.4470215</ele>
        <time>2014-07-12T08:32:08Z</time>
      </trkpt>
      <trkpt lat="44.33258" lon="2.64164">
        <ele>663.4470215</ele>
        <time>2014-07-12T08:32:13Z</time>
      </trkpt>
      <trkpt lat="44.33262" lon="2.64139">
        <ele>662.9663086</ele>
        <time>2014-07-12T08:32:19Z</time>
      </trkpt>
      <trkpt lat="44.33267" lon="2.64114">
        <ele>662.005127</ele>
        <time>2014-07-12T08:32:25Z</time>
      </trkpt>
      <trkpt lat="44.3327" lon="2.64097">
        <ele>661.5244141</ele>
        <time>2014-07-12T08:32:29Z</time>
      </trkpt>
      <trkpt lat="44.33274" lon="2.64081">
        <ele>661.5244141</ele>
        <time>2014-07-12T08:32:33Z</time>
      </trkpt>
      <trkpt lat="44.33277" lon="2.64059">
        <ele>661.5244141</ele>
        <time>2014-07-12T08:32:38Z</time>
      </trkpt>
      <trkpt lat="44.33278" lon="2.64037">
        <ele>661.5244141</ele>
        <time>2014-07-12T08:32:43Z</time>
      </trkpt>
      <trkpt lat="44.33284" lon="2.6401">
        <ele>661.0437012</ele>
        <time>2014-07-12T08:32:50Z</time>
      </trkpt>
      <trkpt lat="44.33289" lon="2.63991">
        <ele>660.0822754</ele>
        <time>2014-07-12T08:32:55Z</time>
      </trkpt>
      <trkpt lat="44.33294" lon="2.63963">
        <ele>658.6403809</ele>
        <time>2014-07-12T08:33:02Z</time>
      </trkpt>
      <trkpt lat="44.33296" lon="2.63943">
        <ele>657.6791992</ele>
        <time>2014-07-12T08:33:07Z</time>
      </trkpt>
      <trkpt lat="44.333" lon="2.63918">
        <ele>655.7565918</ele>
        <time>2014-07-12T08:33:13Z</time>
      </trkpt>
      <trkpt lat="44.33304" lon="2.63901">
        <ele>655.2758789</ele>
        <time>2014-07-12T08:33:17Z</time>
      </trkpt>
      <trkpt lat="44.33309" lon="2.63876">
        <ele>654.3146973</ele>
        <time>2014-07-12T08:33:23Z</time>
      </trkpt>
      <trkpt lat="44.33316" lon="2.63853">
        <ele>652.8725586</ele>
        <time>2014-07-12T08:33:29Z</time>
      </trkpt>
      <trkpt lat="44.3332" lon="2.63828">
        <ele>651.4304199</ele>
        <time>2014-07-12T08:33:35Z</time>
      </trkpt>
      <trkpt lat="44.33324" lon="2.63808">
        <ele>649.9885254</ele>
        <time>2014-07-12T08:33:40Z</time>
      </trkpt>
      <trkpt lat="44.33332" lon="2.63789">
        <ele>649.0270996</ele>
        <time>2014-07-12T08:33:45Z</time>
      </trkpt>
      <trkpt lat="44.33339" lon="2.63763">
        <ele>647.5852051</ele>
        <time>2014-07-12T08:33:51Z</time>
      </trkpt>
      <trkpt lat="44.33345" lon="2.63742">
        <ele>646.6240234</ele>
        <time>2014-07-12T08:33:56Z</time>
      </trkpt>
      <trkpt lat="44.33351" lon="2.63716">
        <ele>643.7399902</ele>
        <time>2014-07-12T08:34:02Z</time>
      </trkpt>
      <trkpt lat="44.33357" lon="2.63695">
        <ele>641.8173828</ele>
        <time>2014-07-12T08:34:07Z</time>
      </trkpt>
      <trkpt lat="44.33367" lon="2.63675">
        <ele>639.8947754</ele>
        <time>2014-07-12T08:34:12Z</time>
      </trkpt>
      <trkpt lat="44.33379" lon="2.63654">
        <ele>637.4914551</ele>
        <time>2014-07-12T08:34:18Z</time>
      </trkpt>
      <trkpt lat="44.33386" lon="2.63639">
        <ele>635.0881348</ele>
        <time>2014-07-12T08:34:22Z</time>
      </trkpt>
      <trkpt lat="44.33392" lon="2.6363">
        <ele>632.6848145</ele>
        <time>2014-07-12T08:34:25Z</time>
      </trkpt>
      <trkpt lat="44.33402" lon="2.63619">
        <ele>629.8007813</ele>
        <time>2014-07-12T08:34:29Z</time>
      </trkpt>
      <trkpt lat="44.33415" lon="2.63603">
        <ele>627.3977051</ele>
        <time>2014-07-12T08:34:34Z</time>
      </trkpt>
      <trkpt lat="44.33428" lon="2.63589">
        <ele>625.4748535</ele>
        <time>2014-07-12T08:34:39Z</time>
      </trkpt>
      <trkpt lat="44.33439" lon="2.63576">
        <ele>623.5524902</ele>
        <time>2014-07-12T08:34:44Z</time>
      </trkpt>
      <trkpt lat="44.33446" lon="2.63558">
        <ele>622.5910645</ele>
        <time>2014-07-12T08:34:49Z</time>
      </trkpt>
      <trkpt lat="44.33447" lon="2.63533">
        <ele>623.0717773</ele>
        <time>2014-07-12T08:34:55Z</time>
      </trkpt>
      <trkpt lat="44.33452" lon="2.63513">
        <ele>624.9943848</ele>
        <time>2014-07-12T08:35:01Z</time>
      </trkpt>
      <trkpt lat="44.33456" lon="2.635">
        <ele>625.9555664</ele>
        <time>2014-07-12T08:35:05Z</time>
      </trkpt>
      <trkpt lat="44.33461" lon="2.63483">
        <ele>627.3977051</ele>
        <time>2014-07-12T08:35:10Z</time>
      </trkpt>
      <trkpt lat="44.33467" lon="2.63465">
        <ele>627.8781738</ele>
        <time>2014-07-12T08:35:15Z</time>
      </trkpt>
      <trkpt lat="44.33473" lon="2.63447">
        <ele>629.3200684</ele>
        <time>2014-07-12T08:35:20Z</time>
      </trkpt>
      <trkpt lat="44.33477" lon="2.63429">
        <ele>631.2429199</ele>
        <time>2014-07-12T08:35:25Z</time>
      </trkpt>
      <trkpt lat="44.33481" lon="2.63415">
        <ele>632.2041016</ele>
        <time>2014-07-12T08:35:29Z</time>
      </trkpt>
      <trkpt lat="44.33483" lon="2.634">
        <ele>632.6848145</ele>
        <time>2014-07-12T08:35:33Z</time>
      </trkpt>
      <trkpt lat="44.33482" lon="2.63382">
        <ele>632.6848145</ele>
        <time>2014-07-12T08:35:38Z</time>
      </trkpt>
      <trkpt lat="44.33483" lon="2.63364">
        <ele>633.6459961</ele>
        <time>2014-07-12T08:35:43Z</time>
      </trkpt>
      <trkpt lat="44.33486" lon="2.63348">
        <ele>633.1652832</ele>
        <time>2014-07-12T08:35:47Z</time>
      </trkpt>
      <trkpt lat="44.33487" lon="2.63331">
        <ele>632.6848145</ele>
        <time>2014-07-12T08:35:51Z</time>
      </trkpt>
      <trkpt lat="44.3349" lon="2.63316">
        <ele>632.6848145</ele>
        <time>2014-07-12T08:35:56Z</time>
      </trkpt>
      <trkpt lat="44.33494" lon="2.633">
        <ele>632.6848145</ele>
        <time>2014-07-12T08:36:01Z</time>
      </trkpt>
      <trkpt lat="44.33499" lon="2.6328">
        <ele>634.126709</ele>
        <time>2014-07-12T08:36:07Z</time>
      </trkpt>
      <trkpt lat="44.33505" lon="2.63256">
        <ele>636.0495605</ele>
        <time>2014-07-12T08:36:14Z</time>
      </trkpt>
      <trkpt lat="44.33511" lon="2.63237">
        <ele>637.972168</ele>
        <time>2014-07-12T08:36:20Z</time>
      </trkpt>
      <trkpt lat="44.33515" lon="2.63223">
        <ele>638.4528809</ele>
        <time>2014-07-12T08:36:24Z</time>
      </trkpt>
      <trkpt lat="44.33519" lon="2.63203">
        <ele>637.972168</ele>
        <time>2014-07-12T08:36:30Z</time>
      </trkpt>
      <trkpt lat="44.33524" lon="2.63184">
        <ele>638.9335938</ele>
        <time>2014-07-12T08:36:36Z</time>
      </trkpt>
      <trkpt lat="44.33529" lon="2.63159">
        <ele>640.855957</ele>
        <time>2014-07-12T08:36:43Z</time>
      </trkpt>
      <trkpt lat="44.33535" lon="2.63142">
        <ele>641.8173828</ele>
        <time>2014-07-12T08:36:48Z</time>
      </trkpt>
      <trkpt lat="44.33541" lon="2.63129">
        <ele>641.8173828</ele>
        <time>2014-07-12T08:36:52Z</time>
      </trkpt>
      <trkpt lat="44.33546" lon="2.6312">
        <ele>641.8173828</ele>
        <time>2014-07-12T08:36:55Z</time>
      </trkpt>
      <trkpt lat="44.33551" lon="2.6311">
        <ele>641.3366699</ele>
        <time>2014-07-12T08:36:59Z</time>
      </trkpt>
      <trkpt lat="44.33556" lon="2.63092">
        <ele>641.8173828</ele>
        <time>2014-07-12T08:37:04Z</time>
      </trkpt>
      <trkpt lat="44.33558" lon="2.6308">
        <ele>641.8173828</ele>
        <time>2014-07-12T08:37:08Z</time>
      </trkpt>
      <trkpt lat="44.33559" lon="2.6306">
        <ele>642.2980957</ele>
        <time>2014-07-12T08:37:15Z</time>
      </trkpt>
      <trkpt lat="44.33564" lon="2.63039">
        <ele>643.7399902</ele>
        <time>2014-07-12T08:37:22Z</time>
      </trkpt>
      <trkpt lat="44.33569" lon="2.63035">
        <ele>644.2207031</ele>
        <time>2014-07-12T08:37:26Z</time>
      </trkpt>
      <trkpt lat="44.3357" lon="2.63034">
        <ele>644.2207031</ele>
        <time>2014-07-12T08:37:27Z</time>
      </trkpt>
      <trkpt lat="44.33577" lon="2.63023">
        <ele>644.7011719</ele>
        <time>2014-07-12T08:37:35Z</time>
      </trkpt>
      <trkpt lat="44.33576" lon="2.63001">
        <ele>644.7011719</ele>
        <time>2014-07-12T08:37:41Z</time>
      </trkpt>
      <trkpt lat="44.33574" lon="2.62986">
        <ele>644.7011719</ele>
        <time>2014-07-12T08:37:45Z</time>
      </trkpt>
      <trkpt lat="44.33573" lon="2.62968">
        <ele>644.2207031</ele>
        <time>2014-07-12T08:37:50Z</time>
      </trkpt>
      <trkpt lat="44.33571" lon="2.62948">
        <ele>644.7011719</ele>
        <time>2014-07-12T08:37:56Z</time>
      </trkpt>
      <trkpt lat="44.3357" lon="2.62942">
        <ele>645.1818848</ele>
        <time>2014-07-12T08:37:58Z</time>
      </trkpt>
      <trkpt lat="44.33568" lon="2.62934">
        <ele>645.1818848</ele>
        <time>2014-07-12T08:38:02Z</time>
      </trkpt>
    </trkseg>
  </trk>
</gpx>